<?xml version="1.0"?>
<gpx
 version="1.0"
 creator="Satmap Active 10"
 xmlns:xsi="http://www.w3.org/2001/XMLSchema-instance"
 xmlns="http://www.topografix.com/GPX/1/0"
 xsi:schemaLocation="http://www.topografix.com/GPX/1/0 http://www.topografix.com/GPX/1/0/gpx.xsd">
<time>2018-04-13T12:08:56Z</time>
<trk>
<name>User Track</name>
<desc>Track 1</desc>
<number>1</number>
<trkseg>
<trkpt lat="52.073628" lon="05.704612"><ele>28</ele><time>2018-04-13T12:08:56Z</time><cmt>0.0 kmh</cmt></trkpt>
<trkpt lat="52.073526" lon="05.704645"><ele>33</ele><time>2018-04-13T12:09:04Z</time><cmt>5.0 kmh</cmt></trkpt>
<trkpt lat="52.073550" lon="05.704668"><ele>33</ele><time>2018-04-13T12:09:07Z</time><cmt>5.5 kmh</cmt></trkpt>
<trkpt lat="52.073585" lon="05.704714"><ele>32</ele><time>2018-04-13T12:09:12Z</time><cmt>5.0 kmh</cmt></trkpt>
<trkpt lat="52.073599" lon="05.704841"><ele>25</ele><time>2018-04-13T12:09:27Z</time><cmt>5.0 kmh</cmt></trkpt>
<trkpt lat="52.073620" lon="05.704928"><ele>24</ele><time>2018-04-13T12:09:30Z</time><cmt>5.1 kmh</cmt></trkpt>
<trkpt lat="52.073692" lon="05.705055"><ele>17</ele><time>2018-04-13T12:09:44Z</time><cmt>5.0 kmh</cmt></trkpt>
<trkpt lat="52.073762" lon="05.705246"><ele>19</ele><time>2018-04-13T12:10:03Z</time><cmt>5.7 kmh</cmt></trkpt>
<trkpt lat="52.073809" lon="05.705256"><ele>25</ele><time>2018-04-13T12:10:13Z</time><cmt>5.0 kmh</cmt></trkpt>
<trkpt lat="52.073812" lon="05.705321"><ele>26</ele><time>2018-04-13T12:10:16Z</time><cmt>6.0 kmh</cmt></trkpt>
<trkpt lat="52.073815" lon="05.705481"><ele>28</ele><time>2018-04-13T12:10:23Z</time><cmt>5.0 kmh</cmt></trkpt>
<trkpt lat="52.073827" lon="05.705545"><ele>28</ele><time>2018-04-13T12:10:29Z</time><cmt>3.9 kmh</cmt></trkpt>
<trkpt lat="52.073840" lon="05.705627"><ele>27</ele><time>2018-04-13T12:10:34Z</time><cmt>5.0 kmh</cmt></trkpt>
<trkpt lat="52.073859" lon="05.705692"><ele>26</ele><time>2018-04-13T12:10:37Z</time><cmt>5.0 kmh</cmt></trkpt>
<trkpt lat="52.073885" lon="05.705732"><ele>25</ele><time>2018-04-13T12:10:40Z</time><cmt>5.0 kmh</cmt></trkpt>
<trkpt lat="52.073916" lon="05.705771"><ele>24</ele><time>2018-04-13T12:10:43Z</time><cmt>5.0 kmh</cmt></trkpt>
<trkpt lat="52.073929" lon="05.705820"><ele>23</ele><time>2018-04-13T12:10:45Z</time><cmt>5.0 kmh</cmt></trkpt>
<trkpt lat="52.073947" lon="05.705899"><ele>23</ele><time>2018-04-13T12:10:48Z</time><cmt>5.0 kmh</cmt></trkpt>
<trkpt lat="52.073971" lon="05.705935"><ele>22</ele><time>2018-04-13T12:10:50Z</time><cmt>5.2 kmh</cmt></trkpt>
<trkpt lat="52.073983" lon="05.705945"><ele>22</ele><time>2018-04-13T12:10:51Z</time><cmt>5.5 kmh</cmt></trkpt>
<trkpt lat="52.073995" lon="05.705954"><ele>22</ele><time>2018-04-13T12:10:52Z</time><cmt>5.8 kmh</cmt></trkpt>
<trkpt lat="52.074007" lon="05.705968"><ele>22</ele><time>2018-04-13T12:10:53Z</time><cmt>6.0 kmh</cmt></trkpt>
<trkpt lat="52.074019" lon="05.705980"><ele>22</ele><time>2018-04-13T12:10:54Z</time><cmt>5.9 kmh</cmt></trkpt>
<trkpt lat="52.074030" lon="05.705994"><ele>22</ele><time>2018-04-13T12:10:55Z</time><cmt>5.1 kmh</cmt></trkpt>
<trkpt lat="52.074041" lon="05.706009"><ele>22</ele><time>2018-04-13T12:10:56Z</time><cmt>5.1 kmh</cmt></trkpt>
<trkpt lat="52.074051" lon="05.706026"><ele>22</ele><time>2018-04-13T12:10:57Z</time><cmt>6.3 kmh</cmt></trkpt>
<trkpt lat="52.074062" lon="05.706044"><ele>21</ele><time>2018-04-13T12:10:58Z</time><cmt>6.3 kmh</cmt></trkpt>
<trkpt lat="52.074073" lon="05.706063"><ele>21</ele><time>2018-04-13T12:10:59Z</time><cmt>5.0 kmh</cmt></trkpt>
<trkpt lat="52.074082" lon="05.706078"><ele>21</ele><time>2018-04-13T12:11:00Z</time><cmt>5.0 kmh</cmt></trkpt>
<trkpt lat="52.074092" lon="05.706093"><ele>21</ele><time>2018-04-13T12:11:01Z</time><cmt>5.0 kmh</cmt></trkpt>
<trkpt lat="52.074102" lon="05.706108"><ele>21</ele><time>2018-04-13T12:11:02Z</time><cmt>5.1 kmh</cmt></trkpt>
<trkpt lat="52.074112" lon="05.706122"><ele>21</ele><time>2018-04-13T12:11:03Z</time><cmt>5.0 kmh</cmt></trkpt>
<trkpt lat="52.074121" lon="05.706136"><ele>21</ele><time>2018-04-13T12:11:04Z</time><cmt>5.0 kmh</cmt></trkpt>
<trkpt lat="52.074130" lon="05.706153"><ele>21</ele><time>2018-04-13T12:11:05Z</time><cmt>5.6 kmh</cmt></trkpt>
<trkpt lat="52.074137" lon="05.706171"><ele>21</ele><time>2018-04-13T12:11:06Z</time><cmt>5.6 kmh</cmt></trkpt>
<trkpt lat="52.074141" lon="05.706188"><ele>20</ele><time>2018-04-13T12:11:07Z</time><cmt>5.0 kmh</cmt></trkpt>
<trkpt lat="52.074148" lon="05.706206"><ele>20</ele><time>2018-04-13T12:11:08Z</time><cmt>5.0 kmh</cmt></trkpt>
<trkpt lat="52.074156" lon="05.706223"><ele>20</ele><time>2018-04-13T12:11:09Z</time><cmt>5.0 kmh</cmt></trkpt>
<trkpt lat="52.074164" lon="05.706240"><ele>20</ele><time>2018-04-13T12:11:10Z</time><cmt>5.1 kmh</cmt></trkpt>
<trkpt lat="52.074171" lon="05.706256"><ele>20</ele><time>2018-04-13T12:11:11Z</time><cmt>5.1 kmh</cmt></trkpt>
<trkpt lat="52.074186" lon="05.706303"><ele>19</ele><time>2018-04-13T12:11:14Z</time><cmt>4.0 kmh</cmt></trkpt>
<trkpt lat="52.074196" lon="05.706342"><ele>19</ele><time>2018-04-13T12:11:16Z</time><cmt>5.0 kmh</cmt></trkpt>
<trkpt lat="52.074199" lon="05.706391"><ele>19</ele><time>2018-04-13T12:11:18Z</time><cmt>5.0 kmh</cmt></trkpt>
<trkpt lat="52.074198" lon="05.706433"><ele>19</ele><time>2018-04-13T12:11:20Z</time><cmt>5.0 kmh</cmt></trkpt>
<trkpt lat="52.074188" lon="05.706495"><ele>19</ele><time>2018-04-13T12:11:22Z</time><cmt>5.1 kmh</cmt></trkpt>
<trkpt lat="52.074176" lon="05.706541"><ele>19</ele><time>2018-04-13T12:11:24Z</time><cmt>5.2 kmh</cmt></trkpt>
<trkpt lat="52.074160" lon="05.706577"><ele>20</ele><time>2018-04-13T12:11:27Z</time><cmt>4.0 kmh</cmt></trkpt>
<trkpt lat="52.074138" lon="05.706609"><ele>20</ele><time>2018-04-13T12:11:29Z</time><cmt>5.0 kmh</cmt></trkpt>
<trkpt lat="52.074115" lon="05.706648"><ele>21</ele><time>2018-04-13T12:11:31Z</time><cmt>5.0 kmh</cmt></trkpt>
<trkpt lat="52.074093" lon="05.706715"><ele>22</ele><time>2018-04-13T12:11:33Z</time><cmt>5.4 kmh</cmt></trkpt>
<trkpt lat="52.074071" lon="05.706767"><ele>23</ele><time>2018-04-13T12:11:35Z</time><cmt>5.0 kmh</cmt></trkpt>
<trkpt lat="52.074051" lon="05.706816"><ele>24</ele><time>2018-04-13T12:11:37Z</time><cmt>5.4 kmh</cmt></trkpt>
<trkpt lat="52.074038" lon="05.706850"><ele>26</ele><time>2018-04-13T12:11:39Z</time><cmt>5.1 kmh</cmt></trkpt>
<trkpt lat="52.074024" lon="05.706876"><ele>27</ele><time>2018-04-13T12:11:41Z</time><cmt>5.1 kmh</cmt></trkpt>
<trkpt lat="52.074015" lon="05.706894"><ele>27</ele><time>2018-04-13T12:11:42Z</time><cmt>5.7 kmh</cmt></trkpt>
<trkpt lat="52.074005" lon="05.706909"><ele>28</ele><time>2018-04-13T12:11:43Z</time><cmt>5.7 kmh</cmt></trkpt>
<trkpt lat="52.073995" lon="05.706926"><ele>28</ele><time>2018-04-13T12:11:44Z</time><cmt>6.6 kmh</cmt></trkpt>
<trkpt lat="52.073976" lon="05.706963"><ele>29</ele><time>2018-04-13T12:11:47Z</time><cmt>5.2 kmh</cmt></trkpt>
<trkpt lat="52.073961" lon="05.706987"><ele>30</ele><time>2018-04-13T12:11:49Z</time><cmt>5.0 kmh</cmt></trkpt>
<trkpt lat="52.073933" lon="05.707012"><ele>31</ele><time>2018-04-13T12:11:52Z</time><cmt>3.9 kmh</cmt></trkpt>
<trkpt lat="52.073916" lon="05.707036"><ele>31</ele><time>2018-04-13T12:11:54Z</time><cmt>5.0 kmh</cmt></trkpt>
<trkpt lat="52.073875" lon="05.707092"><ele>32</ele><time>2018-04-13T12:11:58Z</time><cmt>5.0 kmh</cmt></trkpt>
<trkpt lat="52.073878" lon="05.707150"><ele>35</ele><time>2018-04-13T12:12:09Z</time><cmt>5.0 kmh</cmt></trkpt>
<trkpt lat="52.073884" lon="05.707151"><ele>35</ele><time>2018-04-13T12:12:10Z</time><cmt>5.0 kmh</cmt></trkpt>
<trkpt lat="52.073888" lon="05.707155"><ele>36</ele><time>2018-04-13T12:12:11Z</time><cmt>2.2 kmh</cmt></trkpt>
<trkpt lat="52.073892" lon="05.707161"><ele>36</ele><time>2018-04-13T12:12:12Z</time><cmt>2.1 kmh</cmt></trkpt>
<trkpt lat="52.073894" lon="05.707167"><ele>37</ele><time>2018-04-13T12:12:13Z</time><cmt>2.0 kmh</cmt></trkpt>
<trkpt lat="52.073895" lon="05.707173"><ele>38</ele><time>2018-04-13T12:12:14Z</time><cmt>1.9 kmh</cmt></trkpt>
<trkpt lat="52.073898" lon="05.707180"><ele>38</ele><time>2018-04-13T12:12:15Z</time><cmt>1.5 kmh</cmt></trkpt>
<trkpt lat="52.073901" lon="05.707186"><ele>39</ele><time>2018-04-13T12:12:16Z</time><cmt>1.6 kmh</cmt></trkpt>
<trkpt lat="52.073904" lon="05.707192"><ele>39</ele><time>2018-04-13T12:12:17Z</time><cmt>2.0 kmh</cmt></trkpt>
<trkpt lat="52.073739" lon="05.707308"><ele>44</ele><time>2018-04-13T12:12:40Z</time><cmt>5.0 kmh</cmt></trkpt>
<trkpt lat="52.073718" lon="05.707332"><ele>43</ele><time>2018-04-13T12:12:42Z</time><cmt>4.4 kmh</cmt></trkpt>
<trkpt lat="52.073695" lon="05.707368"><ele>42</ele><time>2018-04-13T12:12:44Z</time><cmt>5.0 kmh</cmt></trkpt>
<trkpt lat="52.073677" lon="05.707399"><ele>42</ele><time>2018-04-13T12:12:46Z</time><cmt>5.0 kmh</cmt></trkpt>
<trkpt lat="52.073635" lon="05.707544"><ele>38</ele><time>2018-04-13T12:12:54Z</time><cmt>5.0 kmh</cmt></trkpt>
<trkpt lat="52.073613" lon="05.707566"><ele>37</ele><time>2018-04-13T12:12:56Z</time><cmt>5.0 kmh</cmt></trkpt>
<trkpt lat="52.073585" lon="05.707604"><ele>37</ele><time>2018-04-13T12:12:58Z</time><cmt>5.0 kmh</cmt></trkpt>
<trkpt lat="52.073561" lon="05.707636"><ele>37</ele><time>2018-04-13T12:13:00Z</time><cmt>5.0 kmh</cmt></trkpt>
<trkpt lat="52.073513" lon="05.707706"><ele>36</ele><time>2018-04-13T12:13:05Z</time><cmt>5.0 kmh</cmt></trkpt>
<trkpt lat="52.073490" lon="05.707746"><ele>36</ele><time>2018-04-13T12:13:07Z</time><cmt>5.0 kmh</cmt></trkpt>
<trkpt lat="52.073469" lon="05.707784"><ele>36</ele><time>2018-04-13T12:13:09Z</time><cmt>5.0 kmh</cmt></trkpt>
<trkpt lat="52.073448" lon="05.707814"><ele>36</ele><time>2018-04-13T12:13:11Z</time><cmt>5.0 kmh</cmt></trkpt>
<trkpt lat="52.073426" lon="05.707848"><ele>36</ele><time>2018-04-13T12:13:13Z</time><cmt>5.0 kmh</cmt></trkpt>
<trkpt lat="52.073382" lon="05.707969"><ele>35</ele><time>2018-04-13T12:13:18Z</time><cmt>5.0 kmh</cmt></trkpt>
<trkpt lat="52.073379" lon="05.707982"><ele>35</ele><time>2018-04-13T12:13:19Z</time><cmt>5.0 kmh</cmt></trkpt>
<trkpt lat="52.073371" lon="05.707993"><ele>35</ele><time>2018-04-13T12:13:20Z</time><cmt>3.2 kmh</cmt></trkpt>
<trkpt lat="52.073365" lon="05.707996"><ele>35</ele><time>2018-04-13T12:13:21Z</time><cmt>3.5 kmh</cmt></trkpt>
<trkpt lat="52.073356" lon="05.707993"><ele>35</ele><time>2018-04-13T12:13:22Z</time><cmt>3.5 kmh</cmt></trkpt>
<trkpt lat="52.073346" lon="05.707989"><ele>36</ele><time>2018-04-13T12:13:23Z</time><cmt>4.3 kmh</cmt></trkpt>
<trkpt lat="52.073329" lon="05.708004"><ele>36</ele><time>2018-04-13T12:13:25Z</time><cmt>3.6 kmh</cmt></trkpt>
<trkpt lat="52.073310" lon="05.708032"><ele>36</ele><time>2018-04-13T12:13:27Z</time><cmt>4.3 kmh</cmt></trkpt>
<trkpt lat="52.073293" lon="05.708053"><ele>36</ele><time>2018-04-13T12:13:29Z</time><cmt>5.0 kmh</cmt></trkpt>
<trkpt lat="52.073273" lon="05.708098"><ele>37</ele><time>2018-04-13T12:13:31Z</time><cmt>5.1 kmh</cmt></trkpt>
<trkpt lat="52.073246" lon="05.708149"><ele>37</ele><time>2018-04-13T12:13:33Z</time><cmt>5.0 kmh</cmt></trkpt>
<trkpt lat="52.073224" lon="05.708195"><ele>37</ele><time>2018-04-13T12:13:35Z</time><cmt>5.0 kmh</cmt></trkpt>
<trkpt lat="52.073205" lon="05.708248"><ele>37</ele><time>2018-04-13T12:13:37Z</time><cmt>5.9 kmh</cmt></trkpt>
<trkpt lat="52.073187" lon="05.708275"><ele>37</ele><time>2018-04-13T12:13:39Z</time><cmt>4.3 kmh</cmt></trkpt>
<trkpt lat="52.073167" lon="05.708302"><ele>37</ele><time>2018-04-13T12:13:41Z</time><cmt>5.0 kmh</cmt></trkpt>
<trkpt lat="52.073135" lon="05.708359"><ele>37</ele><time>2018-04-13T12:13:45Z</time><cmt>4.6 kmh</cmt></trkpt>
<trkpt lat="52.073119" lon="05.708387"><ele>36</ele><time>2018-04-13T12:13:47Z</time><cmt>5.0 kmh</cmt></trkpt>
<trkpt lat="52.073102" lon="05.708435"><ele>35</ele><time>2018-04-13T12:13:50Z</time><cmt>4.9 kmh</cmt></trkpt>
<trkpt lat="52.073086" lon="05.708523"><ele>33</ele><time>2018-04-13T12:13:55Z</time><cmt>5.0 kmh</cmt></trkpt>
<trkpt lat="52.073004" lon="05.708730"><ele>39</ele><time>2018-04-13T12:14:19Z</time><cmt>5.0 kmh</cmt></trkpt>
<trkpt lat="52.073010" lon="05.708728"><ele>39</ele><time>2018-04-13T12:14:20Z</time><cmt>5.0 kmh</cmt></trkpt>
<trkpt lat="52.073013" lon="05.708721"><ele>39</ele><time>2018-04-13T12:14:21Z</time><cmt>2.5 kmh</cmt></trkpt>
<trkpt lat="52.073016" lon="05.708716"><ele>39</ele><time>2018-04-13T12:14:22Z</time><cmt>2.1 kmh</cmt></trkpt>
<trkpt lat="52.073017" lon="05.708706"><ele>39</ele><time>2018-04-13T12:14:23Z</time><cmt>1.9 kmh</cmt></trkpt>
<trkpt lat="52.073016" lon="05.708699"><ele>39</ele><time>2018-04-13T12:14:24Z</time><cmt>1.8 kmh</cmt></trkpt>
<trkpt lat="52.073021" lon="05.708703"><ele>39</ele><time>2018-04-13T12:14:25Z</time><cmt>1.9 kmh</cmt></trkpt>
<trkpt lat="52.073037" lon="05.708728"><ele>38</ele><time>2018-04-13T12:14:28Z</time><cmt>3.2 kmh</cmt></trkpt>
<trkpt lat="52.073048" lon="05.708761"><ele>37</ele><time>2018-04-13T12:14:31Z</time><cmt>2.8 kmh</cmt></trkpt>
<trkpt lat="52.073064" lon="05.708805"><ele>36</ele><time>2018-04-13T12:14:34Z</time><cmt>4.6 kmh</cmt></trkpt>
<trkpt lat="52.073089" lon="05.708846"><ele>35</ele><time>2018-04-13T12:14:37Z</time><cmt>4.3 kmh</cmt></trkpt>
<trkpt lat="52.073109" lon="05.708871"><ele>35</ele><time>2018-04-13T12:14:39Z</time><cmt>5.0 kmh</cmt></trkpt>
<trkpt lat="52.073141" lon="05.708919"><ele>34</ele><time>2018-04-13T12:14:42Z</time><cmt>5.0 kmh</cmt></trkpt>
<trkpt lat="52.073171" lon="05.708972"><ele>34</ele><time>2018-04-13T12:14:45Z</time><cmt>5.0 kmh</cmt></trkpt>
<trkpt lat="52.073199" lon="05.709001"><ele>34</ele><time>2018-04-13T12:14:47Z</time><cmt>5.0 kmh</cmt></trkpt>
<trkpt lat="52.073217" lon="05.709035"><ele>33</ele><time>2018-04-13T12:14:49Z</time><cmt>4.7 kmh</cmt></trkpt>
<trkpt lat="52.073233" lon="05.709076"><ele>33</ele><time>2018-04-13T12:14:51Z</time><cmt>5.0 kmh</cmt></trkpt>
<trkpt lat="52.073270" lon="05.709118"><ele>33</ele><time>2018-04-13T12:14:55Z</time><cmt>4.3 kmh</cmt></trkpt>
<trkpt lat="52.073285" lon="05.709151"><ele>33</ele><time>2018-04-13T12:14:57Z</time><cmt>5.0 kmh</cmt></trkpt>
<trkpt lat="52.073300" lon="05.709182"><ele>32</ele><time>2018-04-13T12:14:59Z</time><cmt>5.0 kmh</cmt></trkpt>
<trkpt lat="52.073313" lon="05.709224"><ele>32</ele><time>2018-04-13T12:15:01Z</time><cmt>5.0 kmh</cmt></trkpt>
<trkpt lat="52.073321" lon="05.709263"><ele>31</ele><time>2018-04-13T12:15:03Z</time><cmt>5.0 kmh</cmt></trkpt>
<trkpt lat="52.073334" lon="05.709298"><ele>30</ele><time>2018-04-13T12:15:05Z</time><cmt>5.0 kmh</cmt></trkpt>
<trkpt lat="52.073385" lon="05.709339"><ele>28</ele><time>2018-04-13T12:15:10Z</time><cmt>5.0 kmh</cmt></trkpt>
<trkpt lat="52.073402" lon="05.709361"><ele>27</ele><time>2018-04-13T12:15:12Z</time><cmt>5.0 kmh</cmt></trkpt>
<trkpt lat="52.073421" lon="05.709399"><ele>27</ele><time>2018-04-13T12:15:14Z</time><cmt>5.0 kmh</cmt></trkpt>
<trkpt lat="52.073435" lon="05.709457"><ele>26</ele><time>2018-04-13T12:15:16Z</time><cmt>5.0 kmh</cmt></trkpt>
<trkpt lat="52.073455" lon="05.709506"><ele>26</ele><time>2018-04-13T12:15:18Z</time><cmt>5.0 kmh</cmt></trkpt>
<trkpt lat="52.073500" lon="05.709565"><ele>30</ele><time>2018-04-13T12:15:41Z</time><cmt>5.0 kmh</cmt></trkpt>
<trkpt lat="52.073522" lon="05.709592"><ele>32</ele><time>2018-04-13T12:15:44Z</time><cmt>4.0 kmh</cmt></trkpt>
<trkpt lat="52.073534" lon="05.709630"><ele>32</ele><time>2018-04-13T12:15:46Z</time><cmt>4.5 kmh</cmt></trkpt>
<trkpt lat="52.073547" lon="05.709686"><ele>33</ele><time>2018-04-13T12:15:48Z</time><cmt>5.0 kmh</cmt></trkpt>
<trkpt lat="52.073558" lon="05.709744"><ele>33</ele><time>2018-04-13T12:15:50Z</time><cmt>5.3 kmh</cmt></trkpt>
<trkpt lat="52.073564" lon="05.709793"><ele>33</ele><time>2018-04-13T12:15:52Z</time><cmt>5.0 kmh</cmt></trkpt>
<trkpt lat="52.073583" lon="05.709857"><ele>34</ele><time>2018-04-13T12:15:55Z</time><cmt>5.0 kmh</cmt></trkpt>
<trkpt lat="52.073590" lon="05.709898"><ele>34</ele><time>2018-04-13T12:15:57Z</time><cmt>5.0 kmh</cmt></trkpt>
<trkpt lat="52.073606" lon="05.709930"><ele>35</ele><time>2018-04-13T12:15:59Z</time><cmt>4.4 kmh</cmt></trkpt>
<trkpt lat="52.073643" lon="05.709977"><ele>34</ele><time>2018-04-13T12:16:02Z</time><cmt>5.0 kmh</cmt></trkpt>
<trkpt lat="52.073666" lon="05.709993"><ele>33</ele><time>2018-04-13T12:16:04Z</time><cmt>5.0 kmh</cmt></trkpt>
<trkpt lat="52.073684" lon="05.710031"><ele>32</ele><time>2018-04-13T12:16:07Z</time><cmt>3.6 kmh</cmt></trkpt>
<trkpt lat="52.073697" lon="05.710064"><ele>31</ele><time>2018-04-13T12:16:09Z</time><cmt>5.0 kmh</cmt></trkpt>
<trkpt lat="52.073710" lon="05.710100"><ele>31</ele><time>2018-04-13T12:16:11Z</time><cmt>4.8 kmh</cmt></trkpt>
<trkpt lat="52.073722" lon="05.710191"><ele>30</ele><time>2018-04-13T12:16:15Z</time><cmt>5.0 kmh</cmt></trkpt>
<trkpt lat="52.073725" lon="05.710257"><ele>30</ele><time>2018-04-13T12:16:18Z</time><cmt>5.0 kmh</cmt></trkpt>
<trkpt lat="52.073748" lon="05.710283"><ele>30</ele><time>2018-04-13T12:16:21Z</time><cmt>4.0 kmh</cmt></trkpt>
<trkpt lat="52.073774" lon="05.710311"><ele>29</ele><time>2018-04-13T12:16:24Z</time><cmt>3.9 kmh</cmt></trkpt>
<trkpt lat="52.073794" lon="05.710346"><ele>29</ele><time>2018-04-13T12:16:27Z</time><cmt>4.3 kmh</cmt></trkpt>
<trkpt lat="52.073825" lon="05.710379"><ele>28</ele><time>2018-04-13T12:16:30Z</time><cmt>4.6 kmh</cmt></trkpt>
<trkpt lat="52.073844" lon="05.710412"><ele>27</ele><time>2018-04-13T12:16:32Z</time><cmt>5.0 kmh</cmt></trkpt>
<trkpt lat="52.073865" lon="05.710452"><ele>26</ele><time>2018-04-13T12:16:36Z</time><cmt>3.1 kmh</cmt></trkpt>
<trkpt lat="52.073895" lon="05.710507"><ele>25</ele><time>2018-04-13T12:16:40Z</time><cmt>4.8 kmh</cmt></trkpt>
<trkpt lat="52.073916" lon="05.710573"><ele>24</ele><time>2018-04-13T12:16:44Z</time><cmt>5.0 kmh</cmt></trkpt>
<trkpt lat="52.073931" lon="05.710615"><ele>23</ele><time>2018-04-13T12:16:46Z</time><cmt>5.0 kmh</cmt></trkpt>
<trkpt lat="52.073958" lon="05.710655"><ele>22</ele><time>2018-04-13T12:16:49Z</time><cmt>4.4 kmh</cmt></trkpt>
<trkpt lat="52.073992" lon="05.710700"><ele>21</ele><time>2018-04-13T12:16:53Z</time><cmt>4.8 kmh</cmt></trkpt>
<trkpt lat="52.074017" lon="05.710742"><ele>21</ele><time>2018-04-13T12:16:56Z</time><cmt>4.4 kmh</cmt></trkpt>
<trkpt lat="52.074042" lon="05.710787"><ele>20</ele><time>2018-04-13T12:16:59Z</time><cmt>5.0 kmh</cmt></trkpt>
<trkpt lat="52.074062" lon="05.710821"><ele>20</ele><time>2018-04-13T12:17:01Z</time><cmt>5.0 kmh</cmt></trkpt>
<trkpt lat="52.074085" lon="05.710861"><ele>20</ele><time>2018-04-13T12:17:03Z</time><cmt>5.0 kmh</cmt></trkpt>
<trkpt lat="52.074124" lon="05.710911"><ele>20</ele><time>2018-04-13T12:17:06Z</time><cmt>5.5 kmh</cmt></trkpt>
<trkpt lat="52.074150" lon="05.710946"><ele>20</ele><time>2018-04-13T12:17:08Z</time><cmt>5.2 kmh</cmt></trkpt>
<trkpt lat="52.074173" lon="05.710978"><ele>21</ele><time>2018-04-13T12:17:10Z</time><cmt>5.2 kmh</cmt></trkpt>
<trkpt lat="52.074189" lon="05.711023"><ele>21</ele><time>2018-04-13T12:17:12Z</time><cmt>5.2 kmh</cmt></trkpt>
<trkpt lat="52.074219" lon="05.711078"><ele>22</ele><time>2018-04-13T12:17:15Z</time><cmt>5.0 kmh</cmt></trkpt>
<trkpt lat="52.074244" lon="05.711120"><ele>22</ele><time>2018-04-13T12:17:18Z</time><cmt>5.0 kmh</cmt></trkpt>
<trkpt lat="52.074266" lon="05.711170"><ele>22</ele><time>2018-04-13T12:17:21Z</time><cmt>4.7 kmh</cmt></trkpt>
<trkpt lat="52.074289" lon="05.711219"><ele>23</ele><time>2018-04-13T12:17:24Z</time><cmt>5.0 kmh</cmt></trkpt>
<trkpt lat="52.074310" lon="05.711265"><ele>23</ele><time>2018-04-13T12:17:27Z</time><cmt>4.3 kmh</cmt></trkpt>
<trkpt lat="52.074343" lon="05.711340"><ele>24</ele><time>2018-04-13T12:17:31Z</time><cmt>5.0 kmh</cmt></trkpt>
<trkpt lat="52.074370" lon="05.711382"><ele>25</ele><time>2018-04-13T12:17:33Z</time><cmt>5.0 kmh</cmt></trkpt>
<trkpt lat="52.074397" lon="05.711428"><ele>25</ele><time>2018-04-13T12:17:35Z</time><cmt>5.0 kmh</cmt></trkpt>
<trkpt lat="52.074430" lon="05.711466"><ele>27</ele><time>2018-04-13T12:17:37Z</time><cmt>5.0 kmh</cmt></trkpt>
<trkpt lat="52.074458" lon="05.711489"><ele>28</ele><time>2018-04-13T12:17:39Z</time><cmt>5.0 kmh</cmt></trkpt>
<trkpt lat="52.074482" lon="05.711506"><ele>29</ele><time>2018-04-13T12:17:41Z</time><cmt>4.5 kmh</cmt></trkpt>
<trkpt lat="52.074503" lon="05.711531"><ele>30</ele><time>2018-04-13T12:17:43Z</time><cmt>5.0 kmh</cmt></trkpt>
<trkpt lat="52.074523" lon="05.711562"><ele>30</ele><time>2018-04-13T12:17:45Z</time><cmt>5.0 kmh</cmt></trkpt>
<trkpt lat="52.074545" lon="05.711593"><ele>31</ele><time>2018-04-13T12:17:47Z</time><cmt>5.0 kmh</cmt></trkpt>
<trkpt lat="52.074567" lon="05.711619"><ele>31</ele><time>2018-04-13T12:17:49Z</time><cmt>5.0 kmh</cmt></trkpt>
<trkpt lat="52.074589" lon="05.711665"><ele>31</ele><time>2018-04-13T12:17:52Z</time><cmt>5.0 kmh</cmt></trkpt>
<trkpt lat="52.074605" lon="05.711702"><ele>31</ele><time>2018-04-13T12:17:55Z</time><cmt>3.4 kmh</cmt></trkpt>
<trkpt lat="52.074621" lon="05.711749"><ele>30</ele><time>2018-04-13T12:17:58Z</time><cmt>4.7 kmh</cmt></trkpt>
<trkpt lat="52.074634" lon="05.711789"><ele>30</ele><time>2018-04-13T12:18:00Z</time><cmt>4.8 kmh</cmt></trkpt>
<trkpt lat="52.074649" lon="05.711827"><ele>30</ele><time>2018-04-13T12:18:02Z</time><cmt>5.0 kmh</cmt></trkpt>
<trkpt lat="52.074667" lon="05.711861"><ele>29</ele><time>2018-04-13T12:18:04Z</time><cmt>5.0 kmh</cmt></trkpt>
<trkpt lat="52.074685" lon="05.711892"><ele>29</ele><time>2018-04-13T12:18:06Z</time><cmt>5.3 kmh</cmt></trkpt>
<trkpt lat="52.074713" lon="05.711965"><ele>29</ele><time>2018-04-13T12:18:11Z</time><cmt>5.0 kmh</cmt></trkpt>
<trkpt lat="52.074731" lon="05.711996"><ele>29</ele><time>2018-04-13T12:18:13Z</time><cmt>6.2 kmh</cmt></trkpt>
<trkpt lat="52.074751" lon="05.712040"><ele>29</ele><time>2018-04-13T12:18:16Z</time><cmt>4.7 kmh</cmt></trkpt>
<trkpt lat="52.074770" lon="05.712079"><ele>29</ele><time>2018-04-13T12:18:19Z</time><cmt>3.8 kmh</cmt></trkpt>
<trkpt lat="52.074789" lon="05.712120"><ele>29</ele><time>2018-04-13T12:18:22Z</time><cmt>4.5 kmh</cmt></trkpt>
<trkpt lat="52.074816" lon="05.712156"><ele>29</ele><time>2018-04-13T12:18:25Z</time><cmt>4.3 kmh</cmt></trkpt>
<trkpt lat="52.074839" lon="05.712189"><ele>29</ele><time>2018-04-13T12:18:28Z</time><cmt>4.4 kmh</cmt></trkpt>
<trkpt lat="52.074858" lon="05.712221"><ele>29</ele><time>2018-04-13T12:18:31Z</time><cmt>3.3 kmh</cmt></trkpt>
<trkpt lat="52.074971" lon="05.712388"><ele>42</ele><time>2018-04-13T12:20:20Z</time><cmt>5.0 kmh</cmt></trkpt>
<trkpt lat="52.074986" lon="05.712421"><ele>42</ele><time>2018-04-13T12:20:24Z</time><cmt>2.7 kmh</cmt></trkpt>
<trkpt lat="52.074996" lon="05.712485"><ele>40</ele><time>2018-04-13T12:20:28Z</time><cmt>3.9 kmh</cmt></trkpt>
<trkpt lat="52.075016" lon="05.712533"><ele>39</ele><time>2018-04-13T12:20:31Z</time><cmt>5.0 kmh</cmt></trkpt>
<trkpt lat="52.075038" lon="05.712590"><ele>36</ele><time>2018-04-13T12:20:36Z</time><cmt>4.5 kmh</cmt></trkpt>
<trkpt lat="52.075062" lon="05.712645"><ele>35</ele><time>2018-04-13T12:20:39Z</time><cmt>5.0 kmh</cmt></trkpt>
<trkpt lat="52.075082" lon="05.712699"><ele>33</ele><time>2018-04-13T12:20:44Z</time><cmt>5.0 kmh</cmt></trkpt>
<trkpt lat="52.075107" lon="05.712754"><ele>32</ele><time>2018-04-13T12:20:47Z</time><cmt>5.0 kmh</cmt></trkpt>
<trkpt lat="52.075137" lon="05.712799"><ele>31</ele><time>2018-04-13T12:20:50Z</time><cmt>5.0 kmh</cmt></trkpt>
<trkpt lat="52.075165" lon="05.712856"><ele>30</ele><time>2018-04-13T12:20:53Z</time><cmt>5.0 kmh</cmt></trkpt>
<trkpt lat="52.075187" lon="05.712917"><ele>30</ele><time>2018-04-13T12:20:56Z</time><cmt>5.0 kmh</cmt></trkpt>
<trkpt lat="52.075210" lon="05.712978"><ele>29</ele><time>2018-04-13T12:20:59Z</time><cmt>5.0 kmh</cmt></trkpt>
<trkpt lat="52.075236" lon="05.713022"><ele>28</ele><time>2018-04-13T12:21:02Z</time><cmt>5.0 kmh</cmt></trkpt>
<trkpt lat="52.075262" lon="05.713060"><ele>28</ele><time>2018-04-13T12:21:05Z</time><cmt>4.3 kmh</cmt></trkpt>
<trkpt lat="52.075292" lon="05.713091"><ele>28</ele><time>2018-04-13T12:21:08Z</time><cmt>5.0 kmh</cmt></trkpt>
<trkpt lat="52.075321" lon="05.713115"><ele>28</ele><time>2018-04-13T12:21:11Z</time><cmt>4.0 kmh</cmt></trkpt>
<trkpt lat="52.075338" lon="05.713167"><ele>28</ele><time>2018-04-13T12:21:14Z</time><cmt>5.0 kmh</cmt></trkpt>
<trkpt lat="52.075350" lon="05.713229"><ele>28</ele><time>2018-04-13T12:21:18Z</time><cmt>5.0 kmh</cmt></trkpt>
<trkpt lat="52.075368" lon="05.713333"><ele>28</ele><time>2018-04-13T12:21:24Z</time><cmt>5.0 kmh</cmt></trkpt>
<trkpt lat="52.075396" lon="05.713377"><ele>28</ele><time>2018-04-13T12:21:28Z</time><cmt>4.1 kmh</cmt></trkpt>
<trkpt lat="52.075416" lon="05.713420"><ele>28</ele><time>2018-04-13T12:21:31Z</time><cmt>4.2 kmh</cmt></trkpt>
<trkpt lat="52.075442" lon="05.713478"><ele>28</ele><time>2018-04-13T12:21:35Z</time><cmt>4.7 kmh</cmt></trkpt>
<trkpt lat="52.075466" lon="05.713514"><ele>27</ele><time>2018-04-13T12:21:37Z</time><cmt>5.0 kmh</cmt></trkpt>
<trkpt lat="52.075489" lon="05.713560"><ele>27</ele><time>2018-04-13T12:21:39Z</time><cmt>5.5 kmh</cmt></trkpt>
<trkpt lat="52.075525" lon="05.713629"><ele>26</ele><time>2018-04-13T12:21:43Z</time><cmt>5.0 kmh</cmt></trkpt>
<trkpt lat="52.075554" lon="05.713678"><ele>25</ele><time>2018-04-13T12:21:46Z</time><cmt>5.0 kmh</cmt></trkpt>
<trkpt lat="52.075571" lon="05.713721"><ele>25</ele><time>2018-04-13T12:21:48Z</time><cmt>5.0 kmh</cmt></trkpt>
<trkpt lat="52.075604" lon="05.713785"><ele>25</ele><time>2018-04-13T12:21:51Z</time><cmt>5.1 kmh</cmt></trkpt>
<trkpt lat="52.075633" lon="05.713840"><ele>26</ele><time>2018-04-13T12:21:54Z</time><cmt>6.0 kmh</cmt></trkpt>
<trkpt lat="52.075645" lon="05.713917"><ele>26</ele><time>2018-04-13T12:21:57Z</time><cmt>5.0 kmh</cmt></trkpt>
<trkpt lat="52.075669" lon="05.713982"><ele>27</ele><time>2018-04-13T12:22:01Z</time><cmt>4.5 kmh</cmt></trkpt>
<trkpt lat="52.075692" lon="05.714015"><ele>27</ele><time>2018-04-13T12:22:04Z</time><cmt>4.5 kmh</cmt></trkpt>
<trkpt lat="52.075719" lon="05.714065"><ele>27</ele><time>2018-04-13T12:22:08Z</time><cmt>5.0 kmh</cmt></trkpt>
<trkpt lat="52.075743" lon="05.714093"><ele>27</ele><time>2018-04-13T12:22:10Z</time><cmt>5.0 kmh</cmt></trkpt>
<trkpt lat="52.075769" lon="05.714131"><ele>27</ele><time>2018-04-13T12:22:13Z</time><cmt>5.0 kmh</cmt></trkpt>
<trkpt lat="52.075792" lon="05.714192"><ele>26</ele><time>2018-04-13T12:22:17Z</time><cmt>5.0 kmh</cmt></trkpt>
<trkpt lat="52.075811" lon="05.714243"><ele>25</ele><time>2018-04-13T12:22:20Z</time><cmt>4.6 kmh</cmt></trkpt>
<trkpt lat="52.075835" lon="05.714295"><ele>25</ele><time>2018-04-13T12:22:23Z</time><cmt>5.0 kmh</cmt></trkpt>
<trkpt lat="52.075873" lon="05.714365"><ele>24</ele><time>2018-04-13T12:22:27Z</time><cmt>5.0 kmh</cmt></trkpt>
<trkpt lat="52.075907" lon="05.714406"><ele>23</ele><time>2018-04-13T12:22:30Z</time><cmt>5.0 kmh</cmt></trkpt>
<trkpt lat="52.075933" lon="05.714467"><ele>23</ele><time>2018-04-13T12:22:33Z</time><cmt>5.0 kmh</cmt></trkpt>
<trkpt lat="52.075959" lon="05.714502"><ele>22</ele><time>2018-04-13T12:22:35Z</time><cmt>5.0 kmh</cmt></trkpt>
<trkpt lat="52.075985" lon="05.714533"><ele>22</ele><time>2018-04-13T12:22:37Z</time><cmt>5.0 kmh</cmt></trkpt>
<trkpt lat="52.076009" lon="05.714569"><ele>23</ele><time>2018-04-13T12:22:39Z</time><cmt>5.0 kmh</cmt></trkpt>
<trkpt lat="52.076033" lon="05.714599"><ele>23</ele><time>2018-04-13T12:22:41Z</time><cmt>5.0 kmh</cmt></trkpt>
<trkpt lat="52.076057" lon="05.714635"><ele>23</ele><time>2018-04-13T12:22:44Z</time><cmt>4.8 kmh</cmt></trkpt>
<trkpt lat="52.076079" lon="05.714672"><ele>22</ele><time>2018-04-13T12:22:47Z</time><cmt>3.9 kmh</cmt></trkpt>
<trkpt lat="52.076183" lon="05.714745"><ele>23</ele><time>2018-04-13T12:22:54Z</time><cmt>5.0 kmh</cmt></trkpt>
<trkpt lat="52.076227" lon="05.714731"><ele>23</ele><time>2018-04-13T12:22:57Z</time><cmt>5.0 kmh</cmt></trkpt>
<trkpt lat="52.076251" lon="05.714692"><ele>24</ele><time>2018-04-13T12:23:00Z</time><cmt>4.2 kmh</cmt></trkpt>
<trkpt lat="52.076271" lon="05.714665"><ele>24</ele><time>2018-04-13T12:23:02Z</time><cmt>5.0 kmh</cmt></trkpt>
<trkpt lat="52.076294" lon="05.714636"><ele>24</ele><time>2018-04-13T12:23:04Z</time><cmt>5.0 kmh</cmt></trkpt>
<trkpt lat="52.076317" lon="05.714608"><ele>25</ele><time>2018-04-13T12:23:06Z</time><cmt>5.0 kmh</cmt></trkpt>
<trkpt lat="52.076338" lon="05.714584"><ele>26</ele><time>2018-04-13T12:23:08Z</time><cmt>5.0 kmh</cmt></trkpt>
<trkpt lat="52.076359" lon="05.714471"><ele>30</ele><time>2018-04-13T12:23:17Z</time><cmt>5.0 kmh</cmt></trkpt>
<trkpt lat="52.076344" lon="05.714462"><ele>33</ele><time>2018-04-13T12:23:26Z</time><cmt>3.5 kmh</cmt></trkpt>
<trkpt lat="52.076348" lon="05.714466"><ele>34</ele><time>2018-04-13T12:23:27Z</time><cmt>4.5 kmh</cmt></trkpt>
<trkpt lat="52.076354" lon="05.714471"><ele>34</ele><time>2018-04-13T12:23:28Z</time><cmt>2.4 kmh</cmt></trkpt>
<trkpt lat="52.076359" lon="05.714476"><ele>35</ele><time>2018-04-13T12:23:29Z</time><cmt>2.9 kmh</cmt></trkpt>
<trkpt lat="52.076365" lon="05.714483"><ele>35</ele><time>2018-04-13T12:23:30Z</time><cmt>2.3 kmh</cmt></trkpt>
<trkpt lat="52.076370" lon="05.714491"><ele>36</ele><time>2018-04-13T12:23:31Z</time><cmt>2.4 kmh</cmt></trkpt>
<trkpt lat="52.076374" lon="05.714500"><ele>36</ele><time>2018-04-13T12:23:32Z</time><cmt>3.0 kmh</cmt></trkpt>
<trkpt lat="52.076379" lon="05.714508"><ele>36</ele><time>2018-04-13T12:23:33Z</time><cmt>3.0 kmh</cmt></trkpt>
<trkpt lat="52.076384" lon="05.714515"><ele>37</ele><time>2018-04-13T12:23:34Z</time><cmt>3.0 kmh</cmt></trkpt>
<trkpt lat="52.076388" lon="05.714522"><ele>37</ele><time>2018-04-13T12:23:35Z</time><cmt>2.7 kmh</cmt></trkpt>
<trkpt lat="52.076390" lon="05.714527"><ele>37</ele><time>2018-04-13T12:23:36Z</time><cmt>1.6 kmh</cmt></trkpt>
<trkpt lat="52.076391" lon="05.714532"><ele>37</ele><time>2018-04-13T12:23:37Z</time><cmt>1.2 kmh</cmt></trkpt>
<trkpt lat="52.076300" lon="05.714389"><ele>43</ele><time>2018-04-13T12:23:53Z</time><cmt>5.0 kmh</cmt></trkpt>
<trkpt lat="52.076446" lon="05.714383"><ele>37</ele><time>2018-04-13T12:24:15Z</time><cmt>5.0 kmh</cmt></trkpt>
<trkpt lat="52.076462" lon="05.714359"><ele>36</ele><time>2018-04-13T12:24:17Z</time><cmt>5.6 kmh</cmt></trkpt>
<trkpt lat="52.076479" lon="05.714334"><ele>35</ele><time>2018-04-13T12:24:19Z</time><cmt>5.0 kmh</cmt></trkpt>
<trkpt lat="52.076502" lon="05.714307"><ele>34</ele><time>2018-04-13T12:24:22Z</time><cmt>3.6 kmh</cmt></trkpt>
<trkpt lat="52.076531" lon="05.714287"><ele>33</ele><time>2018-04-13T12:24:24Z</time><cmt>5.0 kmh</cmt></trkpt>
<trkpt lat="52.076553" lon="05.714269"><ele>32</ele><time>2018-04-13T12:24:26Z</time><cmt>5.0 kmh</cmt></trkpt>
<trkpt lat="52.076574" lon="05.714248"><ele>32</ele><time>2018-04-13T12:24:28Z</time><cmt>4.3 kmh</cmt></trkpt>
<trkpt lat="52.076597" lon="05.714221"><ele>31</ele><time>2018-04-13T12:24:30Z</time><cmt>5.7 kmh</cmt></trkpt>
<trkpt lat="52.076622" lon="05.714181"><ele>31</ele><time>2018-04-13T12:24:33Z</time><cmt>5.0 kmh</cmt></trkpt>
<trkpt lat="52.076650" lon="05.714152"><ele>31</ele><time>2018-04-13T12:24:35Z</time><cmt>5.0 kmh</cmt></trkpt>
<trkpt lat="52.076679" lon="05.714121"><ele>31</ele><time>2018-04-13T12:24:37Z</time><cmt>5.0 kmh</cmt></trkpt>
<trkpt lat="52.076709" lon="05.714069"><ele>31</ele><time>2018-04-13T12:24:40Z</time><cmt>5.7 kmh</cmt></trkpt>
<trkpt lat="52.076744" lon="05.714028"><ele>31</ele><time>2018-04-13T12:24:43Z</time><cmt>5.0 kmh</cmt></trkpt>
<trkpt lat="52.076779" lon="05.714000"><ele>32</ele><time>2018-04-13T12:24:45Z</time><cmt>5.4 kmh</cmt></trkpt>
<trkpt lat="52.076808" lon="05.713958"><ele>33</ele><time>2018-04-13T12:24:48Z</time><cmt>4.8 kmh</cmt></trkpt>
<trkpt lat="52.076833" lon="05.713898"><ele>33</ele><time>2018-04-13T12:24:52Z</time><cmt>5.2 kmh</cmt></trkpt>
<trkpt lat="52.076874" lon="05.713826"><ele>33</ele><time>2018-04-13T12:24:58Z</time><cmt>5.0 kmh</cmt></trkpt>
<trkpt lat="52.076907" lon="05.713780"><ele>33</ele><time>2018-04-13T12:25:02Z</time><cmt>5.0 kmh</cmt></trkpt>
<trkpt lat="52.076942" lon="05.713732"><ele>33</ele><time>2018-04-13T12:25:05Z</time><cmt>5.0 kmh</cmt></trkpt>
<trkpt lat="52.076971" lon="05.713687"><ele>33</ele><time>2018-04-13T12:25:08Z</time><cmt>5.0 kmh</cmt></trkpt>
<trkpt lat="52.077002" lon="05.713639"><ele>33</ele><time>2018-04-13T12:25:11Z</time><cmt>5.0 kmh</cmt></trkpt>
<trkpt lat="52.077029" lon="05.713599"><ele>32</ele><time>2018-04-13T12:25:14Z</time><cmt>4.5 kmh</cmt></trkpt>
<trkpt lat="52.077055" lon="05.713557"><ele>32</ele><time>2018-04-13T12:25:18Z</time><cmt>3.5 kmh</cmt></trkpt>
<trkpt lat="52.077085" lon="05.713518"><ele>32</ele><time>2018-04-13T12:25:21Z</time><cmt>5.0 kmh</cmt></trkpt>
<trkpt lat="52.077119" lon="05.713478"><ele>32</ele><time>2018-04-13T12:25:25Z</time><cmt>4.0 kmh</cmt></trkpt>
<trkpt lat="52.077151" lon="05.713433"><ele>33</ele><time>2018-04-13T12:25:29Z</time><cmt>4.6 kmh</cmt></trkpt>
<trkpt lat="52.077176" lon="05.713387"><ele>33</ele><time>2018-04-13T12:25:33Z</time><cmt>3.6 kmh</cmt></trkpt>
<trkpt lat="52.077199" lon="05.713345"><ele>33</ele><time>2018-04-13T12:25:36Z</time><cmt>5.0 kmh</cmt></trkpt>
<trkpt lat="52.077220" lon="05.713296"><ele>32</ele><time>2018-04-13T12:25:39Z</time><cmt>4.5 kmh</cmt></trkpt>
<trkpt lat="52.077234" lon="05.713260"><ele>32</ele><time>2018-04-13T12:25:41Z</time><cmt>5.0 kmh</cmt></trkpt>
<trkpt lat="52.077254" lon="05.713223"><ele>32</ele><time>2018-04-13T12:25:43Z</time><cmt>5.0 kmh</cmt></trkpt>
<trkpt lat="52.077273" lon="05.713189"><ele>32</ele><time>2018-04-13T12:25:45Z</time><cmt>4.9 kmh</cmt></trkpt>
<trkpt lat="52.077288" lon="05.713130"><ele>31</ele><time>2018-04-13T12:25:49Z</time><cmt>4.2 kmh</cmt></trkpt>
<trkpt lat="52.077309" lon="05.713088"><ele>31</ele><time>2018-04-13T12:25:53Z</time><cmt>4.8 kmh</cmt></trkpt>
<trkpt lat="52.077331" lon="05.713056"><ele>30</ele><time>2018-04-13T12:25:55Z</time><cmt>5.0 kmh</cmt></trkpt>
<trkpt lat="52.077349" lon="05.713029"><ele>30</ele><time>2018-04-13T12:25:57Z</time><cmt>4.2 kmh</cmt></trkpt>
<trkpt lat="52.077367" lon="05.713003"><ele>29</ele><time>2018-04-13T12:25:59Z</time><cmt>5.0 kmh</cmt></trkpt>
<trkpt lat="52.077388" lon="05.712961"><ele>29</ele><time>2018-04-13T12:26:02Z</time><cmt>4.8 kmh</cmt></trkpt>
<trkpt lat="52.077411" lon="05.712923"><ele>28</ele><time>2018-04-13T12:26:04Z</time><cmt>5.0 kmh</cmt></trkpt>
<trkpt lat="52.077465" lon="05.712841"><ele>27</ele><time>2018-04-13T12:26:10Z</time><cmt>5.0 kmh</cmt></trkpt>
<trkpt lat="52.077484" lon="05.712814"><ele>26</ele><time>2018-04-13T12:26:12Z</time><cmt>5.0 kmh</cmt></trkpt>
<trkpt lat="52.077516" lon="05.712751"><ele>26</ele><time>2018-04-13T12:26:18Z</time><cmt>5.0 kmh</cmt></trkpt>
<trkpt lat="52.077548" lon="05.712709"><ele>26</ele><time>2018-04-13T12:26:22Z</time><cmt>3.9 kmh</cmt></trkpt>
<trkpt lat="52.077583" lon="05.712625"><ele>25</ele><time>2018-04-13T12:26:29Z</time><cmt>5.0 kmh</cmt></trkpt>
<trkpt lat="52.077599" lon="05.712586"><ele>25</ele><time>2018-04-13T12:26:31Z</time><cmt>5.0 kmh</cmt></trkpt>
<trkpt lat="52.077624" lon="05.712542"><ele>25</ele><time>2018-04-13T12:26:34Z</time><cmt>5.0 kmh</cmt></trkpt>
<trkpt lat="52.077639" lon="05.712509"><ele>25</ele><time>2018-04-13T12:26:36Z</time><cmt>4.4 kmh</cmt></trkpt>
<trkpt lat="52.077658" lon="05.712475"><ele>24</ele><time>2018-04-13T12:26:38Z</time><cmt>5.0 kmh</cmt></trkpt>
<trkpt lat="52.077678" lon="05.712448"><ele>24</ele><time>2018-04-13T12:26:40Z</time><cmt>5.0 kmh</cmt></trkpt>
<trkpt lat="52.077707" lon="05.712409"><ele>24</ele><time>2018-04-13T12:26:43Z</time><cmt>4.6 kmh</cmt></trkpt>
<trkpt lat="52.077727" lon="05.712384"><ele>24</ele><time>2018-04-13T12:26:45Z</time><cmt>5.0 kmh</cmt></trkpt>
<trkpt lat="52.077774" lon="05.712303"><ele>25</ele><time>2018-04-13T12:26:52Z</time><cmt>5.0 kmh</cmt></trkpt>
<trkpt lat="52.077790" lon="05.712274"><ele>25</ele><time>2018-04-13T12:26:54Z</time><cmt>5.0 kmh</cmt></trkpt>
<trkpt lat="52.077808" lon="05.712246"><ele>25</ele><time>2018-04-13T12:26:56Z</time><cmt>4.7 kmh</cmt></trkpt>
<trkpt lat="52.077827" lon="05.712218"><ele>25</ele><time>2018-04-13T12:26:58Z</time><cmt>5.0 kmh</cmt></trkpt>
<trkpt lat="52.077860" lon="05.712178"><ele>25</ele><time>2018-04-13T12:27:00Z</time><cmt>5.0 kmh</cmt></trkpt>
<trkpt lat="52.077884" lon="05.712146"><ele>25</ele><time>2018-04-13T12:27:02Z</time><cmt>5.0 kmh</cmt></trkpt>
<trkpt lat="52.077944" lon="05.712045"><ele>24</ele><time>2018-04-13T12:27:11Z</time><cmt>5.0 kmh</cmt></trkpt>
<trkpt lat="52.077974" lon="05.711987"><ele>24</ele><time>2018-04-13T12:27:16Z</time><cmt>5.0 kmh</cmt></trkpt>
<trkpt lat="52.077996" lon="05.711952"><ele>24</ele><time>2018-04-13T12:27:18Z</time><cmt>5.0 kmh</cmt></trkpt>
<trkpt lat="52.078016" lon="05.711918"><ele>24</ele><time>2018-04-13T12:27:20Z</time><cmt>4.9 kmh</cmt></trkpt>
<trkpt lat="52.078034" lon="05.711884"><ele>24</ele><time>2018-04-13T12:27:22Z</time><cmt>5.0 kmh</cmt></trkpt>
<trkpt lat="52.078180" lon="05.711659"><ele>29</ele><time>2018-04-13T12:27:47Z</time><cmt>5.0 kmh</cmt></trkpt>
<trkpt lat="52.078205" lon="05.711647"><ele>29</ele><time>2018-04-13T12:27:49Z</time><cmt>5.0 kmh</cmt></trkpt>
<trkpt lat="52.078240" lon="05.711627"><ele>29</ele><time>2018-04-13T12:27:51Z</time><cmt>5.0 kmh</cmt></trkpt>
<trkpt lat="52.078346" lon="05.711639"><ele>29</ele><time>2018-04-13T12:28:11Z</time><cmt>5.0 kmh</cmt></trkpt>
<trkpt lat="52.078362" lon="05.711673"><ele>29</ele><time>2018-04-13T12:28:14Z</time><cmt>3.7 kmh</cmt></trkpt>
<trkpt lat="52.078388" lon="05.711712"><ele>29</ele><time>2018-04-13T12:28:17Z</time><cmt>4.4 kmh</cmt></trkpt>
<trkpt lat="52.078410" lon="05.711742"><ele>29</ele><time>2018-04-13T12:28:19Z</time><cmt>5.0 kmh</cmt></trkpt>
<trkpt lat="52.078417" lon="05.711782"><ele>29</ele><time>2018-04-13T12:28:21Z</time><cmt>5.0 kmh</cmt></trkpt>
<trkpt lat="52.078420" lon="05.711836"><ele>29</ele><time>2018-04-13T12:28:24Z</time><cmt>4.1 kmh</cmt></trkpt>
<trkpt lat="52.078433" lon="05.711905"><ele>30</ele><time>2018-04-13T12:28:30Z</time><cmt>5.0 kmh</cmt></trkpt>
<trkpt lat="52.078440" lon="05.711943"><ele>30</ele><time>2018-04-13T12:28:32Z</time><cmt>5.0 kmh</cmt></trkpt>
<trkpt lat="52.078446" lon="05.712000"><ele>31</ele><time>2018-04-13T12:28:35Z</time><cmt>5.0 kmh</cmt></trkpt>
<trkpt lat="52.078450" lon="05.712048"><ele>32</ele><time>2018-04-13T12:28:38Z</time><cmt>3.6 kmh</cmt></trkpt>
<trkpt lat="52.078446" lon="05.712106"><ele>33</ele><time>2018-04-13T12:28:42Z</time><cmt>3.4 kmh</cmt></trkpt>
<trkpt lat="52.078436" lon="05.712160"><ele>33</ele><time>2018-04-13T12:28:45Z</time><cmt>5.1 kmh</cmt></trkpt>
<trkpt lat="52.078425" lon="05.712204"><ele>34</ele><time>2018-04-13T12:28:47Z</time><cmt>5.1 kmh</cmt></trkpt>
<trkpt lat="52.078418" lon="05.712246"><ele>34</ele><time>2018-04-13T12:28:49Z</time><cmt>4.6 kmh</cmt></trkpt>
<trkpt lat="52.078422" lon="05.712302"><ele>35</ele><time>2018-04-13T12:28:52Z</time><cmt>5.0 kmh</cmt></trkpt>
<trkpt lat="52.078419" lon="05.712351"><ele>36</ele><time>2018-04-13T12:28:54Z</time><cmt>5.0 kmh</cmt></trkpt>
<trkpt lat="52.078420" lon="05.712401"><ele>37</ele><time>2018-04-13T12:28:56Z</time><cmt>5.0 kmh</cmt></trkpt>
<trkpt lat="52.078416" lon="05.712454"><ele>37</ele><time>2018-04-13T12:28:58Z</time><cmt>5.0 kmh</cmt></trkpt>
<trkpt lat="52.078418" lon="05.712515"><ele>38</ele><time>2018-04-13T12:29:01Z</time><cmt>5.8 kmh</cmt></trkpt>
<trkpt lat="52.078424" lon="05.712568"><ele>39</ele><time>2018-04-13T12:29:03Z</time><cmt>5.0 kmh</cmt></trkpt>
<trkpt lat="52.078425" lon="05.712621"><ele>39</ele><time>2018-04-13T12:29:06Z</time><cmt>4.7 kmh</cmt></trkpt>
<trkpt lat="52.078419" lon="05.712675"><ele>39</ele><time>2018-04-13T12:29:09Z</time><cmt>4.2 kmh</cmt></trkpt>
<trkpt lat="52.078421" lon="05.712740"><ele>40</ele><time>2018-04-13T12:29:12Z</time><cmt>5.0 kmh</cmt></trkpt>
<trkpt lat="52.078422" lon="05.712796"><ele>41</ele><time>2018-04-13T12:29:15Z</time><cmt>4.3 kmh</cmt></trkpt>
<trkpt lat="52.078415" lon="05.712846"><ele>41</ele><time>2018-04-13T12:29:18Z</time><cmt>4.6 kmh</cmt></trkpt>
<trkpt lat="52.078413" lon="05.712890"><ele>41</ele><time>2018-04-13T12:29:20Z</time><cmt>5.0 kmh</cmt></trkpt>
<trkpt lat="52.078411" lon="05.712940"><ele>41</ele><time>2018-04-13T12:29:22Z</time><cmt>5.0 kmh</cmt></trkpt>
<trkpt lat="52.078414" lon="05.712991"><ele>41</ele><time>2018-04-13T12:29:24Z</time><cmt>5.0 kmh</cmt></trkpt>
<trkpt lat="52.078421" lon="05.713037"><ele>41</ele><time>2018-04-13T12:29:26Z</time><cmt>5.0 kmh</cmt></trkpt>
<trkpt lat="52.078424" lon="05.713081"><ele>41</ele><time>2018-04-13T12:29:28Z</time><cmt>5.0 kmh</cmt></trkpt>
<trkpt lat="52.078428" lon="05.713137"><ele>41</ele><time>2018-04-13T12:29:30Z</time><cmt>6.2 kmh</cmt></trkpt>
<trkpt lat="52.078434" lon="05.713182"><ele>41</ele><time>2018-04-13T12:29:32Z</time><cmt>5.0 kmh</cmt></trkpt>
<trkpt lat="52.078446" lon="05.713231"><ele>41</ele><time>2018-04-13T12:29:34Z</time><cmt>5.2 kmh</cmt></trkpt>
<trkpt lat="52.078455" lon="05.713270"><ele>41</ele><time>2018-04-13T12:29:36Z</time><cmt>5.0 kmh</cmt></trkpt>
<trkpt lat="52.078464" lon="05.713316"><ele>41</ele><time>2018-04-13T12:29:39Z</time><cmt>3.6 kmh</cmt></trkpt>
<trkpt lat="52.078462" lon="05.713368"><ele>40</ele><time>2018-04-13T12:29:41Z</time><cmt>5.0 kmh</cmt></trkpt>
<trkpt lat="52.078460" lon="05.713422"><ele>40</ele><time>2018-04-13T12:29:43Z</time><cmt>5.0 kmh</cmt></trkpt>
<trkpt lat="52.078461" lon="05.713477"><ele>40</ele><time>2018-04-13T12:29:45Z</time><cmt>5.0 kmh</cmt></trkpt>
<trkpt lat="52.078474" lon="05.713531"><ele>40</ele><time>2018-04-13T12:29:47Z</time><cmt>5.0 kmh</cmt></trkpt>
<trkpt lat="52.078482" lon="05.713577"><ele>40</ele><time>2018-04-13T12:29:50Z</time><cmt>4.2 kmh</cmt></trkpt>
<trkpt lat="52.078492" lon="05.713617"><ele>39</ele><time>2018-04-13T12:29:53Z</time><cmt>3.3 kmh</cmt></trkpt>
<trkpt lat="52.078504" lon="05.713661"><ele>39</ele><time>2018-04-13T12:29:56Z</time><cmt>4.2 kmh</cmt></trkpt>
<trkpt lat="52.078524" lon="05.713709"><ele>38</ele><time>2018-04-13T12:29:59Z</time><cmt>4.4 kmh</cmt></trkpt>
<trkpt lat="52.078533" lon="05.713752"><ele>38</ele><time>2018-04-13T12:30:01Z</time><cmt>5.0 kmh</cmt></trkpt>
<trkpt lat="52.078541" lon="05.713794"><ele>37</ele><time>2018-04-13T12:30:03Z</time><cmt>5.0 kmh</cmt></trkpt>
<trkpt lat="52.078552" lon="05.713833"><ele>37</ele><time>2018-04-13T12:30:05Z</time><cmt>5.0 kmh</cmt></trkpt>
<trkpt lat="52.078579" lon="05.713890"><ele>37</ele><time>2018-04-13T12:30:09Z</time><cmt>4.7 kmh</cmt></trkpt>
<trkpt lat="52.078590" lon="05.713934"><ele>36</ele><time>2018-04-13T12:30:11Z</time><cmt>5.1 kmh</cmt></trkpt>
<trkpt lat="52.078597" lon="05.713978"><ele>36</ele><time>2018-04-13T12:30:13Z</time><cmt>5.1 kmh</cmt></trkpt>
<trkpt lat="52.078602" lon="05.714037"><ele>36</ele><time>2018-04-13T12:30:16Z</time><cmt>5.0 kmh</cmt></trkpt>
<trkpt lat="52.078601" lon="05.714084"><ele>36</ele><time>2018-04-13T12:30:19Z</time><cmt>3.6 kmh</cmt></trkpt>
<trkpt lat="52.078605" lon="05.714147"><ele>35</ele><time>2018-04-13T12:30:22Z</time><cmt>5.0 kmh</cmt></trkpt>
<trkpt lat="52.078610" lon="05.714191"><ele>35</ele><time>2018-04-13T12:30:24Z</time><cmt>5.0 kmh</cmt></trkpt>
<trkpt lat="52.078619" lon="05.714237"><ele>35</ele><time>2018-04-13T12:30:26Z</time><cmt>5.0 kmh</cmt></trkpt>
<trkpt lat="52.078630" lon="05.714291"><ele>35</ele><time>2018-04-13T12:30:28Z</time><cmt>5.1 kmh</cmt></trkpt>
<trkpt lat="52.078644" lon="05.714343"><ele>35</ele><time>2018-04-13T12:30:30Z</time><cmt>5.0 kmh</cmt></trkpt>
<trkpt lat="52.078653" lon="05.714391"><ele>36</ele><time>2018-04-13T12:30:32Z</time><cmt>5.0 kmh</cmt></trkpt>
<trkpt lat="52.078661" lon="05.714435"><ele>36</ele><time>2018-04-13T12:30:34Z</time><cmt>5.0 kmh</cmt></trkpt>
<trkpt lat="52.078665" lon="05.714477"><ele>36</ele><time>2018-04-13T12:30:36Z</time><cmt>5.0 kmh</cmt></trkpt>
<trkpt lat="52.078669" lon="05.714520"><ele>36</ele><time>2018-04-13T12:30:38Z</time><cmt>4.6 kmh</cmt></trkpt>
<trkpt lat="52.078674" lon="05.714568"><ele>36</ele><time>2018-04-13T12:30:40Z</time><cmt>5.0 kmh</cmt></trkpt>
<trkpt lat="52.078678" lon="05.714619"><ele>36</ele><time>2018-04-13T12:30:42Z</time><cmt>5.0 kmh</cmt></trkpt>
<trkpt lat="52.078685" lon="05.714667"><ele>36</ele><time>2018-04-13T12:30:44Z</time><cmt>5.5 kmh</cmt></trkpt>
<trkpt lat="52.078687" lon="05.714712"><ele>36</ele><time>2018-04-13T12:30:46Z</time><cmt>5.0 kmh</cmt></trkpt>
<trkpt lat="52.078694" lon="05.714759"><ele>36</ele><time>2018-04-13T12:30:48Z</time><cmt>5.0 kmh</cmt></trkpt>
<trkpt lat="52.078700" lon="05.714798"><ele>36</ele><time>2018-04-13T12:30:50Z</time><cmt>4.2 kmh</cmt></trkpt>
<trkpt lat="52.078704" lon="05.714846"><ele>36</ele><time>2018-04-13T12:30:53Z</time><cmt>4.3 kmh</cmt></trkpt>
<trkpt lat="52.078711" lon="05.714890"><ele>36</ele><time>2018-04-13T12:30:55Z</time><cmt>5.0 kmh</cmt></trkpt>
<trkpt lat="52.078717" lon="05.714933"><ele>36</ele><time>2018-04-13T12:30:57Z</time><cmt>5.0 kmh</cmt></trkpt>
<trkpt lat="52.078719" lon="05.714979"><ele>36</ele><time>2018-04-13T12:30:59Z</time><cmt>5.4 kmh</cmt></trkpt>
<trkpt lat="52.078720" lon="05.715043"><ele>36</ele><time>2018-04-13T12:31:02Z</time><cmt>4.9 kmh</cmt></trkpt>
<trkpt lat="52.078719" lon="05.715087"><ele>35</ele><time>2018-04-13T12:31:04Z</time><cmt>5.0 kmh</cmt></trkpt>
<trkpt lat="52.078731" lon="05.715167"><ele>35</ele><time>2018-04-13T12:31:08Z</time><cmt>4.9 kmh</cmt></trkpt>
<trkpt lat="52.078733" lon="05.715211"><ele>35</ele><time>2018-04-13T12:31:10Z</time><cmt>5.0 kmh</cmt></trkpt>
<trkpt lat="52.078730" lon="05.715259"><ele>35</ele><time>2018-04-13T12:31:12Z</time><cmt>5.0 kmh</cmt></trkpt>
<trkpt lat="52.078729" lon="05.715306"><ele>35</ele><time>2018-04-13T12:31:14Z</time><cmt>5.0 kmh</cmt></trkpt>
<trkpt lat="52.078727" lon="05.715355"><ele>35</ele><time>2018-04-13T12:31:16Z</time><cmt>5.0 kmh</cmt></trkpt>
<trkpt lat="52.078726" lon="05.715404"><ele>35</ele><time>2018-04-13T12:31:18Z</time><cmt>5.0 kmh</cmt></trkpt>
<trkpt lat="52.078726" lon="05.715447"><ele>35</ele><time>2018-04-13T12:31:20Z</time><cmt>5.0 kmh</cmt></trkpt>
<trkpt lat="52.078735" lon="05.715500"><ele>35</ele><time>2018-04-13T12:31:23Z</time><cmt>4.2 kmh</cmt></trkpt>
<trkpt lat="52.078735" lon="05.715553"><ele>36</ele><time>2018-04-13T12:31:25Z</time><cmt>5.0 kmh</cmt></trkpt>
<trkpt lat="52.078734" lon="05.715617"><ele>36</ele><time>2018-04-13T12:31:27Z</time><cmt>7.5 kmh</cmt></trkpt>
<trkpt lat="52.078736" lon="05.715669"><ele>36</ele><time>2018-04-13T12:31:29Z</time><cmt>5.0 kmh</cmt></trkpt>
<trkpt lat="52.078733" lon="05.715726"><ele>36</ele><time>2018-04-13T12:31:31Z</time><cmt>5.3 kmh</cmt></trkpt>
<trkpt lat="52.078732" lon="05.715789"><ele>36</ele><time>2018-04-13T12:31:34Z</time><cmt>4.8 kmh</cmt></trkpt>
<trkpt lat="52.078734" lon="05.715852"><ele>36</ele><time>2018-04-13T12:31:37Z</time><cmt>5.3 kmh</cmt></trkpt>
<trkpt lat="52.078738" lon="05.715899"><ele>37</ele><time>2018-04-13T12:31:39Z</time><cmt>5.0 kmh</cmt></trkpt>
<trkpt lat="52.078767" lon="05.716022"><ele>34</ele><time>2018-04-13T12:32:09Z</time><cmt>5.0 kmh</cmt></trkpt>
<trkpt lat="52.078831" lon="05.716123"><ele>37</ele><time>2018-04-13T12:32:27Z</time><cmt>5.0 kmh</cmt></trkpt>
<trkpt lat="52.078847" lon="05.716196"><ele>35</ele><time>2018-04-13T12:32:39Z</time><cmt>5.0 kmh</cmt></trkpt>
<trkpt lat="52.078863" lon="05.716301"><ele>35</ele><time>2018-04-13T12:32:44Z</time><cmt>5.8 kmh</cmt></trkpt>
<trkpt lat="52.078870" lon="05.716405"><ele>35</ele><time>2018-04-13T12:32:48Z</time><cmt>5.1 kmh</cmt></trkpt>
<trkpt lat="52.078851" lon="05.716491"><ele>34</ele><time>2018-04-13T12:32:52Z</time><cmt>5.0 kmh</cmt></trkpt>
<trkpt lat="52.078875" lon="05.716610"><ele>35</ele><time>2018-04-13T12:32:59Z</time><cmt>5.0 kmh</cmt></trkpt>
<trkpt lat="52.078856" lon="05.716701"><ele>35</ele><time>2018-04-13T12:33:04Z</time><cmt>5.0 kmh</cmt></trkpt>
<trkpt lat="52.078826" lon="05.716768"><ele>35</ele><time>2018-04-13T12:33:06Z</time><cmt>6.2 kmh</cmt></trkpt>
<trkpt lat="52.078804" lon="05.716848"><ele>35</ele><time>2018-04-13T12:33:09Z</time><cmt>5.0 kmh</cmt></trkpt>
<trkpt lat="52.078810" lon="05.716932"><ele>36</ele><time>2018-04-13T12:33:13Z</time><cmt>5.0 kmh</cmt></trkpt>
<trkpt lat="52.078843" lon="05.716991"><ele>36</ele><time>2018-04-13T12:33:16Z</time><cmt>5.1 kmh</cmt></trkpt>
<trkpt lat="52.078879" lon="05.717044"><ele>37</ele><time>2018-04-13T12:33:19Z</time><cmt>5.0 kmh</cmt></trkpt>
<trkpt lat="52.078911" lon="05.717120"><ele>38</ele><time>2018-04-13T12:33:22Z</time><cmt>6.7 kmh</cmt></trkpt>
<trkpt lat="52.078920" lon="05.717203"><ele>39</ele><time>2018-04-13T12:33:24Z</time><cmt>7.7 kmh</cmt></trkpt>
<trkpt lat="52.078917" lon="05.717268"><ele>40</ele><time>2018-04-13T12:33:26Z</time><cmt>5.1 kmh</cmt></trkpt>
<trkpt lat="52.078899" lon="05.717334"><ele>41</ele><time>2018-04-13T12:33:29Z</time><cmt>5.3 kmh</cmt></trkpt>
<trkpt lat="52.078896" lon="05.717412"><ele>41</ele><time>2018-04-13T12:33:32Z</time><cmt>6.1 kmh</cmt></trkpt>
<trkpt lat="52.078898" lon="05.717475"><ele>42</ele><time>2018-04-13T12:33:34Z</time><cmt>5.8 kmh</cmt></trkpt>
<trkpt lat="52.078905" lon="05.717534"><ele>42</ele><time>2018-04-13T12:33:37Z</time><cmt>4.6 kmh</cmt></trkpt>
<trkpt lat="52.078910" lon="05.717599"><ele>42</ele><time>2018-04-13T12:33:41Z</time><cmt>4.3 kmh</cmt></trkpt>
<trkpt lat="52.078915" lon="05.717656"><ele>42</ele><time>2018-04-13T12:33:45Z</time><cmt>3.4 kmh</cmt></trkpt>
<trkpt lat="52.078926" lon="05.717719"><ele>42</ele><time>2018-04-13T12:33:49Z</time><cmt>3.8 kmh</cmt></trkpt>
<trkpt lat="52.078928" lon="05.717762"><ele>41</ele><time>2018-04-13T12:33:51Z</time><cmt>5.0 kmh</cmt></trkpt>
<trkpt lat="52.078930" lon="05.717823"><ele>41</ele><time>2018-04-13T12:33:54Z</time><cmt>5.0 kmh</cmt></trkpt>
<trkpt lat="52.078932" lon="05.717869"><ele>40</ele><time>2018-04-13T12:33:56Z</time><cmt>5.0 kmh</cmt></trkpt>
<trkpt lat="52.078936" lon="05.717921"><ele>39</ele><time>2018-04-13T12:33:59Z</time><cmt>4.6 kmh</cmt></trkpt>
<trkpt lat="52.078936" lon="05.717965"><ele>38</ele><time>2018-04-13T12:34:01Z</time><cmt>5.0 kmh</cmt></trkpt>
<trkpt lat="52.078940" lon="05.718004"><ele>38</ele><time>2018-04-13T12:34:03Z</time><cmt>6.2 kmh</cmt></trkpt>
<trkpt lat="52.078929" lon="05.718044"><ele>37</ele><time>2018-04-13T12:34:05Z</time><cmt>5.0 kmh</cmt></trkpt>
<trkpt lat="52.078911" lon="05.718118"><ele>36</ele><time>2018-04-13T12:34:08Z</time><cmt>5.5 kmh</cmt></trkpt>
<trkpt lat="52.078906" lon="05.718174"><ele>35</ele><time>2018-04-13T12:34:11Z</time><cmt>4.3 kmh</cmt></trkpt>
<trkpt lat="52.078892" lon="05.718245"><ele>35</ele><time>2018-04-13T12:34:14Z</time><cmt>5.0 kmh</cmt></trkpt>
<trkpt lat="52.078908" lon="05.718328"><ele>34</ele><time>2018-04-13T12:34:18Z</time><cmt>5.0 kmh</cmt></trkpt>
<trkpt lat="52.078921" lon="05.718385"><ele>34</ele><time>2018-04-13T12:34:20Z</time><cmt>5.3 kmh</cmt></trkpt>
<trkpt lat="52.078934" lon="05.718442"><ele>34</ele><time>2018-04-13T12:34:22Z</time><cmt>5.0 kmh</cmt></trkpt>
<trkpt lat="52.078944" lon="05.718490"><ele>34</ele><time>2018-04-13T12:34:24Z</time><cmt>5.0 kmh</cmt></trkpt>
<trkpt lat="52.078954" lon="05.718533"><ele>35</ele><time>2018-04-13T12:34:26Z</time><cmt>5.0 kmh</cmt></trkpt>
<trkpt lat="52.078961" lon="05.718586"><ele>35</ele><time>2018-04-13T12:34:29Z</time><cmt>4.2 kmh</cmt></trkpt>
<trkpt lat="52.078976" lon="05.718639"><ele>35</ele><time>2018-04-13T12:34:32Z</time><cmt>5.0 kmh</cmt></trkpt>
<trkpt lat="52.078986" lon="05.718686"><ele>36</ele><time>2018-04-13T12:34:34Z</time><cmt>5.0 kmh</cmt></trkpt>
<trkpt lat="52.078992" lon="05.718745"><ele>36</ele><time>2018-04-13T12:34:36Z</time><cmt>5.1 kmh</cmt></trkpt>
<trkpt lat="52.078989" lon="05.718811"><ele>37</ele><time>2018-04-13T12:34:39Z</time><cmt>5.0 kmh</cmt></trkpt>
<trkpt lat="52.078992" lon="05.718872"><ele>37</ele><time>2018-04-13T12:34:42Z</time><cmt>4.6 kmh</cmt></trkpt>
<trkpt lat="52.078997" lon="05.718942"><ele>37</ele><time>2018-04-13T12:34:48Z</time><cmt>5.0 kmh</cmt></trkpt>
<trkpt lat="52.078999" lon="05.719065"><ele>37</ele><time>2018-04-13T12:35:01Z</time><cmt>5.0 kmh</cmt></trkpt>
<trkpt lat="52.079021" lon="05.719106"><ele>38</ele><time>2018-04-13T12:35:05Z</time><cmt>3.6 kmh</cmt></trkpt>
<trkpt lat="52.079043" lon="05.719213"><ele>33</ele><time>2018-04-13T12:35:22Z</time><cmt>5.0 kmh</cmt></trkpt>
<trkpt lat="52.078941" lon="05.719257"><ele>26</ele><time>2018-04-13T12:35:40Z</time><cmt>5.0 kmh</cmt></trkpt>
<trkpt lat="52.078906" lon="05.719258"><ele>25</ele><time>2018-04-13T12:35:45Z</time><cmt>4.3 kmh</cmt></trkpt>
<trkpt lat="52.078885" lon="05.719287"><ele>24</ele><time>2018-04-13T12:35:48Z</time><cmt>3.9 kmh</cmt></trkpt>
<trkpt lat="52.078863" lon="05.719330"><ele>24</ele><time>2018-04-13T12:35:51Z</time><cmt>4.2 kmh</cmt></trkpt>
<trkpt lat="52.078845" lon="05.719364"><ele>25</ele><time>2018-04-13T12:35:54Z</time><cmt>4.0 kmh</cmt></trkpt>
<trkpt lat="52.078823" lon="05.719406"><ele>25</ele><time>2018-04-13T12:35:57Z</time><cmt>5.3 kmh</cmt></trkpt>
<trkpt lat="52.078796" lon="05.719435"><ele>26</ele><time>2018-04-13T12:36:00Z</time><cmt>4.7 kmh</cmt></trkpt>
<trkpt lat="52.078764" lon="05.719490"><ele>27</ele><time>2018-04-13T12:36:05Z</time><cmt>5.0 kmh</cmt></trkpt>
<trkpt lat="52.078734" lon="05.719522"><ele>27</ele><time>2018-04-13T12:36:07Z</time><cmt>5.0 kmh</cmt></trkpt>
<trkpt lat="52.078705" lon="05.719551"><ele>27</ele><time>2018-04-13T12:36:09Z</time><cmt>5.0 kmh</cmt></trkpt>
<trkpt lat="52.078681" lon="05.719596"><ele>28</ele><time>2018-04-13T12:36:12Z</time><cmt>5.0 kmh</cmt></trkpt>
<trkpt lat="52.078658" lon="05.719643"><ele>29</ele><time>2018-04-13T12:36:16Z</time><cmt>3.5 kmh</cmt></trkpt>
<trkpt lat="52.078621" lon="05.719715"><ele>31</ele><time>2018-04-13T12:36:22Z</time><cmt>5.0 kmh</cmt></trkpt>
<trkpt lat="52.078590" lon="05.719770"><ele>32</ele><time>2018-04-13T12:36:28Z</time><cmt>4.5 kmh</cmt></trkpt>
<trkpt lat="52.078512" lon="05.719874"><ele>34</ele><time>2018-04-13T12:36:35Z</time><cmt>5.0 kmh</cmt></trkpt>
<trkpt lat="52.078486" lon="05.719906"><ele>34</ele><time>2018-04-13T12:36:37Z</time><cmt>5.0 kmh</cmt></trkpt>
<trkpt lat="52.078450" lon="05.719944"><ele>34</ele><time>2018-04-13T12:36:40Z</time><cmt>5.0 kmh</cmt></trkpt>
<trkpt lat="52.078400" lon="05.719984"><ele>35</ele><time>2018-04-13T12:36:44Z</time><cmt>5.0 kmh</cmt></trkpt>
<trkpt lat="52.078370" lon="05.719998"><ele>35</ele><time>2018-04-13T12:36:46Z</time><cmt>5.0 kmh</cmt></trkpt>
<trkpt lat="52.078343" lon="05.720012"><ele>35</ele><time>2018-04-13T12:36:48Z</time><cmt>5.0 kmh</cmt></trkpt>
<trkpt lat="52.078314" lon="05.720047"><ele>36</ele><time>2018-04-13T12:36:51Z</time><cmt>5.0 kmh</cmt></trkpt>
<trkpt lat="52.078276" lon="05.720100"><ele>36</ele><time>2018-04-13T12:36:55Z</time><cmt>5.0 kmh</cmt></trkpt>
<trkpt lat="52.078263" lon="05.720121"><ele>36</ele><time>2018-04-13T12:36:56Z</time><cmt>5.0 kmh</cmt></trkpt>
<trkpt lat="52.078258" lon="05.720130"><ele>36</ele><time>2018-04-13T12:36:57Z</time><cmt>5.0 kmh</cmt></trkpt>
<trkpt lat="52.078255" lon="05.720139"><ele>36</ele><time>2018-04-13T12:36:58Z</time><cmt>2.9 kmh</cmt></trkpt>
<trkpt lat="52.078253" lon="05.720148"><ele>36</ele><time>2018-04-13T12:36:59Z</time><cmt>2.7 kmh</cmt></trkpt>
<trkpt lat="52.078249" lon="05.720161"><ele>36</ele><time>2018-04-13T12:37:00Z</time><cmt>2.5 kmh</cmt></trkpt>
<trkpt lat="52.078245" lon="05.720172"><ele>36</ele><time>2018-04-13T12:37:01Z</time><cmt>2.9 kmh</cmt></trkpt>
<trkpt lat="52.078242" lon="05.720183"><ele>36</ele><time>2018-04-13T12:37:02Z</time><cmt>3.3 kmh</cmt></trkpt>
<trkpt lat="52.078235" lon="05.720198"><ele>36</ele><time>2018-04-13T12:37:03Z</time><cmt>4.0 kmh</cmt></trkpt>
<trkpt lat="52.078229" lon="05.720213"><ele>36</ele><time>2018-04-13T12:37:04Z</time><cmt>4.9 kmh</cmt></trkpt>
<trkpt lat="52.078216" lon="05.720229"><ele>36</ele><time>2018-04-13T12:37:05Z</time><cmt>5.0 kmh</cmt></trkpt>
<trkpt lat="52.078207" lon="05.720241"><ele>36</ele><time>2018-04-13T12:37:06Z</time><cmt>5.0 kmh</cmt></trkpt>
<trkpt lat="52.078199" lon="05.720250"><ele>36</ele><time>2018-04-13T12:37:07Z</time><cmt>3.7 kmh</cmt></trkpt>
<trkpt lat="52.078188" lon="05.720267"><ele>36</ele><time>2018-04-13T12:37:08Z</time><cmt>4.4 kmh</cmt></trkpt>
<trkpt lat="52.078176" lon="05.720287"><ele>36</ele><time>2018-04-13T12:37:09Z</time><cmt>5.0 kmh</cmt></trkpt>
<trkpt lat="52.078164" lon="05.720307"><ele>36</ele><time>2018-04-13T12:37:10Z</time><cmt>5.0 kmh</cmt></trkpt>
<trkpt lat="52.078153" lon="05.720318"><ele>36</ele><time>2018-04-13T12:37:11Z</time><cmt>5.0 kmh</cmt></trkpt>
<trkpt lat="52.078138" lon="05.720331"><ele>36</ele><time>2018-04-13T12:37:12Z</time><cmt>5.0 kmh</cmt></trkpt>
<trkpt lat="52.078125" lon="05.720339"><ele>36</ele><time>2018-04-13T12:37:13Z</time><cmt>5.0 kmh</cmt></trkpt>
<trkpt lat="52.078112" lon="05.720352"><ele>36</ele><time>2018-04-13T12:37:14Z</time><cmt>5.0 kmh</cmt></trkpt>
<trkpt lat="52.078099" lon="05.720363"><ele>36</ele><time>2018-04-13T12:37:15Z</time><cmt>5.0 kmh</cmt></trkpt>
<trkpt lat="52.078088" lon="05.720374"><ele>36</ele><time>2018-04-13T12:37:16Z</time><cmt>5.0 kmh</cmt></trkpt>
<trkpt lat="52.078087" lon="05.720387"><ele>36</ele><time>2018-04-13T12:37:17Z</time><cmt>4.5 kmh</cmt></trkpt>
<trkpt lat="52.078090" lon="05.720397"><ele>36</ele><time>2018-04-13T12:37:18Z</time><cmt>3.1 kmh</cmt></trkpt>
<trkpt lat="52.078089" lon="05.720406"><ele>36</ele><time>2018-04-13T12:37:19Z</time><cmt>2.1 kmh</cmt></trkpt>
<trkpt lat="52.078082" lon="05.720410"><ele>37</ele><time>2018-04-13T12:37:20Z</time><cmt>2.4 kmh</cmt></trkpt>
<trkpt lat="52.078076" lon="05.720416"><ele>37</ele><time>2018-04-13T12:37:21Z</time><cmt>3.2 kmh</cmt></trkpt>
<trkpt lat="52.078072" lon="05.720423"><ele>37</ele><time>2018-04-13T12:37:22Z</time><cmt>2.8 kmh</cmt></trkpt>
<trkpt lat="52.078062" lon="05.720435"><ele>37</ele><time>2018-04-13T12:37:23Z</time><cmt>3.9 kmh</cmt></trkpt>
<trkpt lat="52.078053" lon="05.720446"><ele>37</ele><time>2018-04-13T12:37:24Z</time><cmt>5.0 kmh</cmt></trkpt>
<trkpt lat="52.078043" lon="05.720455"><ele>38</ele><time>2018-04-13T12:37:25Z</time><cmt>4.9 kmh</cmt></trkpt>
<trkpt lat="52.078030" lon="05.720466"><ele>38</ele><time>2018-04-13T12:37:26Z</time><cmt>4.4 kmh</cmt></trkpt>
<trkpt lat="52.078017" lon="05.720480"><ele>38</ele><time>2018-04-13T12:37:27Z</time><cmt>5.0 kmh</cmt></trkpt>
<trkpt lat="52.078009" lon="05.720497"><ele>38</ele><time>2018-04-13T12:37:28Z</time><cmt>5.0 kmh</cmt></trkpt>
<trkpt lat="52.077999" lon="05.720513"><ele>39</ele><time>2018-04-13T12:37:29Z</time><cmt>5.0 kmh</cmt></trkpt>
<trkpt lat="52.077990" lon="05.720525"><ele>39</ele><time>2018-04-13T12:37:30Z</time><cmt>5.0 kmh</cmt></trkpt>
<trkpt lat="52.077980" lon="05.720537"><ele>39</ele><time>2018-04-13T12:37:31Z</time><cmt>5.0 kmh</cmt></trkpt>
<trkpt lat="52.077972" lon="05.720553"><ele>39</ele><time>2018-04-13T12:37:32Z</time><cmt>4.4 kmh</cmt></trkpt>
<trkpt lat="52.077968" lon="05.720563"><ele>39</ele><time>2018-04-13T12:37:33Z</time><cmt>3.5 kmh</cmt></trkpt>
<trkpt lat="52.077966" lon="05.720571"><ele>40</ele><time>2018-04-13T12:37:34Z</time><cmt>2.6 kmh</cmt></trkpt>
<trkpt lat="52.077961" lon="05.720578"><ele>40</ele><time>2018-04-13T12:37:35Z</time><cmt>2.5 kmh</cmt></trkpt>
<trkpt lat="52.077950" lon="05.720587"><ele>40</ele><time>2018-04-13T12:37:36Z</time><cmt>5.8 kmh</cmt></trkpt>
<trkpt lat="52.077928" lon="05.720597"><ele>40</ele><time>2018-04-13T12:37:37Z</time><cmt>5.8 kmh</cmt></trkpt>
<trkpt lat="52.077913" lon="05.720606"><ele>40</ele><time>2018-04-13T12:37:38Z</time><cmt>5.0 kmh</cmt></trkpt>
<trkpt lat="52.077897" lon="05.720624"><ele>39</ele><time>2018-04-13T12:37:39Z</time><cmt>5.0 kmh</cmt></trkpt>
<trkpt lat="52.077884" lon="05.720636"><ele>39</ele><time>2018-04-13T12:37:40Z</time><cmt>5.0 kmh</cmt></trkpt>
<trkpt lat="52.077874" lon="05.720645"><ele>39</ele><time>2018-04-13T12:37:41Z</time><cmt>5.0 kmh</cmt></trkpt>
<trkpt lat="52.077869" lon="05.720656"><ele>39</ele><time>2018-04-13T12:37:42Z</time><cmt>4.4 kmh</cmt></trkpt>
<trkpt lat="52.077866" lon="05.720662"><ele>39</ele><time>2018-04-13T12:37:43Z</time><cmt>2.9 kmh</cmt></trkpt>
<trkpt lat="52.077862" lon="05.720668"><ele>39</ele><time>2018-04-13T12:37:44Z</time><cmt>2.2 kmh</cmt></trkpt>
<trkpt lat="52.077858" lon="05.720679"><ele>38</ele><time>2018-04-13T12:37:45Z</time><cmt>2.2 kmh</cmt></trkpt>
<trkpt lat="52.077853" lon="05.720690"><ele>38</ele><time>2018-04-13T12:37:46Z</time><cmt>2.9 kmh</cmt></trkpt>
<trkpt lat="52.077843" lon="05.720701"><ele>38</ele><time>2018-04-13T12:37:47Z</time><cmt>4.4 kmh</cmt></trkpt>
<trkpt lat="52.077832" lon="05.720712"><ele>38</ele><time>2018-04-13T12:37:48Z</time><cmt>5.0 kmh</cmt></trkpt>
<trkpt lat="52.077821" lon="05.720723"><ele>37</ele><time>2018-04-13T12:37:49Z</time><cmt>5.0 kmh</cmt></trkpt>
<trkpt lat="52.077808" lon="05.720740"><ele>37</ele><time>2018-04-13T12:37:50Z</time><cmt>5.0 kmh</cmt></trkpt>
<trkpt lat="52.077791" lon="05.720746"><ele>37</ele><time>2018-04-13T12:37:51Z</time><cmt>5.0 kmh</cmt></trkpt>
<trkpt lat="52.077764" lon="05.720780"><ele>36</ele><time>2018-04-13T12:37:54Z</time><cmt>4.8 kmh</cmt></trkpt>
<trkpt lat="52.077725" lon="05.720822"><ele>36</ele><time>2018-04-13T12:37:57Z</time><cmt>5.0 kmh</cmt></trkpt>
<trkpt lat="52.077680" lon="05.720857"><ele>35</ele><time>2018-04-13T12:38:00Z</time><cmt>5.0 kmh</cmt></trkpt>
<trkpt lat="52.077643" lon="05.720896"><ele>35</ele><time>2018-04-13T12:38:03Z</time><cmt>5.0 kmh</cmt></trkpt>
<trkpt lat="52.077620" lon="05.720930"><ele>35</ele><time>2018-04-13T12:38:05Z</time><cmt>5.0 kmh</cmt></trkpt>
<trkpt lat="52.077569" lon="05.720986"><ele>35</ele><time>2018-04-13T12:38:09Z</time><cmt>5.0 kmh</cmt></trkpt>
<trkpt lat="52.077543" lon="05.721017"><ele>36</ele><time>2018-04-13T12:38:10Z</time><cmt>5.0 kmh</cmt></trkpt>
<trkpt lat="52.077530" lon="05.721026"><ele>36</ele><time>2018-04-13T12:38:11Z</time><cmt>5.0 kmh</cmt></trkpt>
<trkpt lat="52.077521" lon="05.721036"><ele>36</ele><time>2018-04-13T12:38:12Z</time><cmt>5.0 kmh</cmt></trkpt>
<trkpt lat="52.077511" lon="05.721046"><ele>36</ele><time>2018-04-13T12:38:13Z</time><cmt>4.9 kmh</cmt></trkpt>
<trkpt lat="52.077503" lon="05.721055"><ele>36</ele><time>2018-04-13T12:38:14Z</time><cmt>4.7 kmh</cmt></trkpt>
<trkpt lat="52.077498" lon="05.721064"><ele>36</ele><time>2018-04-13T12:38:15Z</time><cmt>3.8 kmh</cmt></trkpt>
<trkpt lat="52.077493" lon="05.721076"><ele>36</ele><time>2018-04-13T12:38:16Z</time><cmt>3.6 kmh</cmt></trkpt>
<trkpt lat="52.077486" lon="05.721097"><ele>36</ele><time>2018-04-13T12:38:17Z</time><cmt>4.1 kmh</cmt></trkpt>
<trkpt lat="52.077481" lon="05.721115"><ele>36</ele><time>2018-04-13T12:38:18Z</time><cmt>4.7 kmh</cmt></trkpt>
<trkpt lat="52.077476" lon="05.721127"><ele>36</ele><time>2018-04-13T12:38:19Z</time><cmt>4.5 kmh</cmt></trkpt>
<trkpt lat="52.077466" lon="05.721136"><ele>36</ele><time>2018-04-13T12:38:20Z</time><cmt>4.4 kmh</cmt></trkpt>
<trkpt lat="52.077454" lon="05.721145"><ele>36</ele><time>2018-04-13T12:38:21Z</time><cmt>5.0 kmh</cmt></trkpt>
<trkpt lat="52.077447" lon="05.721154"><ele>36</ele><time>2018-04-13T12:38:22Z</time><cmt>4.8 kmh</cmt></trkpt>
<trkpt lat="52.077435" lon="05.721165"><ele>36</ele><time>2018-04-13T12:38:23Z</time><cmt>4.0 kmh</cmt></trkpt>
<trkpt lat="52.077427" lon="05.721175"><ele>36</ele><time>2018-04-13T12:38:24Z</time><cmt>4.0 kmh</cmt></trkpt>
<trkpt lat="52.077422" lon="05.721191"><ele>36</ele><time>2018-04-13T12:38:25Z</time><cmt>4.6 kmh</cmt></trkpt>
<trkpt lat="52.077417" lon="05.721205"><ele>36</ele><time>2018-04-13T12:38:26Z</time><cmt>4.5 kmh</cmt></trkpt>
<trkpt lat="52.077413" lon="05.721217"><ele>36</ele><time>2018-04-13T12:38:27Z</time><cmt>3.8 kmh</cmt></trkpt>
<trkpt lat="52.077410" lon="05.721222"><ele>37</ele><time>2018-04-13T12:38:28Z</time><cmt>2.7 kmh</cmt></trkpt>
<trkpt lat="52.077406" lon="05.721240"><ele>37</ele><time>2018-04-13T12:38:29Z</time><cmt>2.8 kmh</cmt></trkpt>
<trkpt lat="52.077404" lon="05.721258"><ele>37</ele><time>2018-04-13T12:38:30Z</time><cmt>4.0 kmh</cmt></trkpt>
<trkpt lat="52.077394" lon="05.721266"><ele>37</ele><time>2018-04-13T12:38:31Z</time><cmt>4.9 kmh</cmt></trkpt>
<trkpt lat="52.077382" lon="05.721272"><ele>38</ele><time>2018-04-13T12:38:32Z</time><cmt>5.0 kmh</cmt></trkpt>
<trkpt lat="52.077377" lon="05.721283"><ele>38</ele><time>2018-04-13T12:38:33Z</time><cmt>4.5 kmh</cmt></trkpt>
<trkpt lat="52.077373" lon="05.721294"><ele>38</ele><time>2018-04-13T12:38:34Z</time><cmt>3.5 kmh</cmt></trkpt>
<trkpt lat="52.077363" lon="05.721311"><ele>38</ele><time>2018-04-13T12:38:35Z</time><cmt>4.8 kmh</cmt></trkpt>
<trkpt lat="52.077353" lon="05.721321"><ele>39</ele><time>2018-04-13T12:38:36Z</time><cmt>4.4 kmh</cmt></trkpt>
<trkpt lat="52.077347" lon="05.721331"><ele>39</ele><time>2018-04-13T12:38:37Z</time><cmt>3.6 kmh</cmt></trkpt>
<trkpt lat="52.077344" lon="05.721342"><ele>39</ele><time>2018-04-13T12:38:38Z</time><cmt>3.4 kmh</cmt></trkpt>
<trkpt lat="52.077335" lon="05.721354"><ele>39</ele><time>2018-04-13T12:38:39Z</time><cmt>4.0 kmh</cmt></trkpt>
<trkpt lat="52.077323" lon="05.721364"><ele>39</ele><time>2018-04-13T12:38:40Z</time><cmt>5.0 kmh</cmt></trkpt>
<trkpt lat="52.077313" lon="05.721373"><ele>40</ele><time>2018-04-13T12:38:41Z</time><cmt>5.0 kmh</cmt></trkpt>
<trkpt lat="52.077302" lon="05.721380"><ele>40</ele><time>2018-04-13T12:38:42Z</time><cmt>4.0 kmh</cmt></trkpt>
<trkpt lat="52.077286" lon="05.721381"><ele>40</ele><time>2018-04-13T12:38:43Z</time><cmt>4.7 kmh</cmt></trkpt>
<trkpt lat="52.077269" lon="05.721378"><ele>40</ele><time>2018-04-13T12:38:44Z</time><cmt>5.0 kmh</cmt></trkpt>
<trkpt lat="52.077246" lon="05.721373"><ele>40</ele><time>2018-04-13T12:38:45Z</time><cmt>5.0 kmh</cmt></trkpt>
<trkpt lat="52.077225" lon="05.721367"><ele>39</ele><time>2018-04-13T12:38:46Z</time><cmt>5.0 kmh</cmt></trkpt>
<trkpt lat="52.077205" lon="05.721363"><ele>39</ele><time>2018-04-13T12:38:47Z</time><cmt>5.0 kmh</cmt></trkpt>
<trkpt lat="52.077187" lon="05.721358"><ele>38</ele><time>2018-04-13T12:38:48Z</time><cmt>5.0 kmh</cmt></trkpt>
<trkpt lat="52.077179" lon="05.721351"><ele>38</ele><time>2018-04-13T12:38:49Z</time><cmt>4.7 kmh</cmt></trkpt>
<trkpt lat="52.077178" lon="05.721341"><ele>38</ele><time>2018-04-13T12:38:50Z</time><cmt>2.6 kmh</cmt></trkpt>
<trkpt lat="52.077172" lon="05.721340"><ele>37</ele><time>2018-04-13T12:38:51Z</time><cmt>2.6 kmh</cmt></trkpt>
<trkpt lat="52.077167" lon="05.721337"><ele>37</ele><time>2018-04-13T12:38:52Z</time><cmt>2.4 kmh</cmt></trkpt>
<trkpt lat="52.077164" lon="05.721333"><ele>36</ele><time>2018-04-13T12:38:53Z</time><cmt>2.0 kmh</cmt></trkpt>
<trkpt lat="52.077158" lon="05.721329"><ele>36</ele><time>2018-04-13T12:38:54Z</time><cmt>2.3 kmh</cmt></trkpt>
<trkpt lat="52.077151" lon="05.721328"><ele>35</ele><time>2018-04-13T12:38:55Z</time><cmt>2.3 kmh</cmt></trkpt>
<trkpt lat="52.077148" lon="05.721327"><ele>34</ele><time>2018-04-13T12:38:56Z</time><cmt>1.7 kmh</cmt></trkpt>
<trkpt lat="52.077153" lon="05.721325"><ele>34</ele><time>2018-04-13T12:38:57Z</time><cmt>1.7 kmh</cmt></trkpt>
<trkpt lat="52.077157" lon="05.721324"><ele>33</ele><time>2018-04-13T12:38:58Z</time><cmt>2.1 kmh</cmt></trkpt>
<trkpt lat="52.077157" lon="05.721324"><ele>33</ele><time>2018-04-13T12:38:59Z</time><cmt>1.0 kmh</cmt></trkpt>
<trkpt lat="52.077155" lon="05.721324"><ele>32</ele><time>2018-04-13T12:39:00Z</time><cmt>0.3 kmh</cmt></trkpt>
<trkpt lat="52.077153" lon="05.721326"><ele>32</ele><time>2018-04-13T12:39:01Z</time><cmt>0.6 kmh</cmt></trkpt>
<trkpt lat="52.077144" lon="05.721328"><ele>31</ele><time>2018-04-13T12:39:02Z</time><cmt>1.9 kmh</cmt></trkpt>
<trkpt lat="52.077139" lon="05.721332"><ele>31</ele><time>2018-04-13T12:39:03Z</time><cmt>3.0 kmh</cmt></trkpt>
<trkpt lat="52.077136" lon="05.721337"><ele>30</ele><time>2018-04-13T12:39:04Z</time><cmt>2.1 kmh</cmt></trkpt>
<trkpt lat="52.077140" lon="05.721348"><ele>30</ele><time>2018-04-13T12:39:05Z</time><cmt>2.6 kmh</cmt></trkpt>
<trkpt lat="52.077140" lon="05.721360"><ele>30</ele><time>2018-04-13T12:39:06Z</time><cmt>3.3 kmh</cmt></trkpt>
<trkpt lat="52.077138" lon="05.721377"><ele>30</ele><time>2018-04-13T12:39:07Z</time><cmt>3.9 kmh</cmt></trkpt>
<trkpt lat="52.077138" lon="05.721393"><ele>30</ele><time>2018-04-13T12:39:08Z</time><cmt>3.5 kmh</cmt></trkpt>
<trkpt lat="52.077138" lon="05.721409"><ele>30</ele><time>2018-04-13T12:39:09Z</time><cmt>3.4 kmh</cmt></trkpt>
<trkpt lat="52.077139" lon="05.721428"><ele>31</ele><time>2018-04-13T12:39:10Z</time><cmt>4.7 kmh</cmt></trkpt>
<trkpt lat="52.077139" lon="05.721446"><ele>31</ele><time>2018-04-13T12:39:11Z</time><cmt>4.9 kmh</cmt></trkpt>
<trkpt lat="52.077135" lon="05.721465"><ele>31</ele><time>2018-04-13T12:39:12Z</time><cmt>5.0 kmh</cmt></trkpt>
<trkpt lat="52.077137" lon="05.721483"><ele>31</ele><time>2018-04-13T12:39:13Z</time><cmt>5.0 kmh</cmt></trkpt>
<trkpt lat="52.077142" lon="05.721498"><ele>32</ele><time>2018-04-13T12:39:14Z</time><cmt>3.7 kmh</cmt></trkpt>
<trkpt lat="52.077146" lon="05.721516"><ele>32</ele><time>2018-04-13T12:39:15Z</time><cmt>3.8 kmh</cmt></trkpt>
<trkpt lat="52.077149" lon="05.721533"><ele>32</ele><time>2018-04-13T12:39:16Z</time><cmt>4.9 kmh</cmt></trkpt>
<trkpt lat="52.077146" lon="05.721550"><ele>33</ele><time>2018-04-13T12:39:17Z</time><cmt>4.7 kmh</cmt></trkpt>
<trkpt lat="52.077138" lon="05.721570"><ele>33</ele><time>2018-04-13T12:39:18Z</time><cmt>5.0 kmh</cmt></trkpt>
<trkpt lat="52.077123" lon="05.721593"><ele>33</ele><time>2018-04-13T12:39:19Z</time><cmt>5.0 kmh</cmt></trkpt>
<trkpt lat="52.077115" lon="05.721612"><ele>34</ele><time>2018-04-13T12:39:20Z</time><cmt>5.0 kmh</cmt></trkpt>
<trkpt lat="52.077107" lon="05.721627"><ele>34</ele><time>2018-04-13T12:39:21Z</time><cmt>4.5 kmh</cmt></trkpt>
<trkpt lat="52.077100" lon="05.721639"><ele>35</ele><time>2018-04-13T12:39:22Z</time><cmt>4.7 kmh</cmt></trkpt>
<trkpt lat="52.077093" lon="05.721653"><ele>35</ele><time>2018-04-13T12:39:23Z</time><cmt>4.7 kmh</cmt></trkpt>
<trkpt lat="52.077082" lon="05.721666"><ele>36</ele><time>2018-04-13T12:39:24Z</time><cmt>5.0 kmh</cmt></trkpt>
<trkpt lat="52.077075" lon="05.721682"><ele>36</ele><time>2018-04-13T12:39:25Z</time><cmt>5.0 kmh</cmt></trkpt>
<trkpt lat="52.077065" lon="05.721698"><ele>37</ele><time>2018-04-13T12:39:26Z</time><cmt>5.0 kmh</cmt></trkpt>
<trkpt lat="52.077056" lon="05.721714"><ele>37</ele><time>2018-04-13T12:39:27Z</time><cmt>4.6 kmh</cmt></trkpt>
<trkpt lat="52.077047" lon="05.721725"><ele>37</ele><time>2018-04-13T12:39:28Z</time><cmt>4.2 kmh</cmt></trkpt>
<trkpt lat="52.077036" lon="05.721742"><ele>38</ele><time>2018-04-13T12:39:29Z</time><cmt>5.0 kmh</cmt></trkpt>
<trkpt lat="52.077025" lon="05.721757"><ele>38</ele><time>2018-04-13T12:39:30Z</time><cmt>5.0 kmh</cmt></trkpt>
<trkpt lat="52.077013" lon="05.721773"><ele>39</ele><time>2018-04-13T12:39:31Z</time><cmt>5.0 kmh</cmt></trkpt>
<trkpt lat="52.077000" lon="05.721793"><ele>39</ele><time>2018-04-13T12:39:32Z</time><cmt>5.0 kmh</cmt></trkpt>
<trkpt lat="52.076989" lon="05.721810"><ele>40</ele><time>2018-04-13T12:39:33Z</time><cmt>5.0 kmh</cmt></trkpt>
<trkpt lat="52.076979" lon="05.721832"><ele>40</ele><time>2018-04-13T12:39:34Z</time><cmt>5.0 kmh</cmt></trkpt>
<trkpt lat="52.076967" lon="05.721845"><ele>40</ele><time>2018-04-13T12:39:35Z</time><cmt>5.0 kmh</cmt></trkpt>
<trkpt lat="52.076955" lon="05.721854"><ele>41</ele><time>2018-04-13T12:39:36Z</time><cmt>5.0 kmh</cmt></trkpt>
<trkpt lat="52.076942" lon="05.721865"><ele>41</ele><time>2018-04-13T12:39:37Z</time><cmt>5.0 kmh</cmt></trkpt>
<trkpt lat="52.076933" lon="05.721878"><ele>41</ele><time>2018-04-13T12:39:38Z</time><cmt>5.0 kmh</cmt></trkpt>
<trkpt lat="52.076919" lon="05.721892"><ele>42</ele><time>2018-04-13T12:39:39Z</time><cmt>5.0 kmh</cmt></trkpt>
<trkpt lat="52.076905" lon="05.721907"><ele>42</ele><time>2018-04-13T12:39:40Z</time><cmt>5.0 kmh</cmt></trkpt>
<trkpt lat="52.076896" lon="05.721922"><ele>42</ele><time>2018-04-13T12:39:41Z</time><cmt>5.0 kmh</cmt></trkpt>
<trkpt lat="52.076896" lon="05.721940"><ele>43</ele><time>2018-04-13T12:39:42Z</time><cmt>5.0 kmh</cmt></trkpt>
<trkpt lat="52.076898" lon="05.721953"><ele>43</ele><time>2018-04-13T12:39:43Z</time><cmt>4.1 kmh</cmt></trkpt>
<trkpt lat="52.076899" lon="05.721963"><ele>43</ele><time>2018-04-13T12:39:44Z</time><cmt>3.1 kmh</cmt></trkpt>
<trkpt lat="52.076900" lon="05.721975"><ele>43</ele><time>2018-04-13T12:39:45Z</time><cmt>3.0 kmh</cmt></trkpt>
<trkpt lat="52.076901" lon="05.721988"><ele>44</ele><time>2018-04-13T12:39:46Z</time><cmt>2.7 kmh</cmt></trkpt>
<trkpt lat="52.076903" lon="05.722003"><ele>44</ele><time>2018-04-13T12:39:47Z</time><cmt>3.0 kmh</cmt></trkpt>
<trkpt lat="52.076904" lon="05.722018"><ele>45</ele><time>2018-04-13T12:39:48Z</time><cmt>4.0 kmh</cmt></trkpt>
<trkpt lat="52.076906" lon="05.722027"><ele>46</ele><time>2018-04-13T12:39:49Z</time><cmt>3.4 kmh</cmt></trkpt>
<trkpt lat="52.076910" lon="05.722036"><ele>46</ele><time>2018-04-13T12:39:50Z</time><cmt>2.8 kmh</cmt></trkpt>
<trkpt lat="52.076912" lon="05.722043"><ele>47</ele><time>2018-04-13T12:39:51Z</time><cmt>2.4 kmh</cmt></trkpt>
<trkpt lat="52.076913" lon="05.722050"><ele>48</ele><time>2018-04-13T12:39:52Z</time><cmt>1.6 kmh</cmt></trkpt>
<trkpt lat="52.076913" lon="05.722057"><ele>48</ele><time>2018-04-13T12:39:53Z</time><cmt>1.5 kmh</cmt></trkpt>
<trkpt lat="52.076911" lon="05.722061"><ele>49</ele><time>2018-04-13T12:39:54Z</time><cmt>1.5 kmh</cmt></trkpt>
<trkpt lat="52.076910" lon="05.722070"><ele>50</ele><time>2018-04-13T12:39:55Z</time><cmt>2.0 kmh</cmt></trkpt>
<trkpt lat="52.076905" lon="05.722081"><ele>51</ele><time>2018-04-13T12:39:56Z</time><cmt>3.1 kmh</cmt></trkpt>
<trkpt lat="52.076899" lon="05.722084"><ele>51</ele><time>2018-04-13T12:39:57Z</time><cmt>3.1 kmh</cmt></trkpt>
<trkpt lat="52.076897" lon="05.722084"><ele>52</ele><time>2018-04-13T12:39:58Z</time><cmt>1.7 kmh</cmt></trkpt>
<trkpt lat="52.076898" lon="05.722086"><ele>52</ele><time>2018-04-13T12:39:59Z</time><cmt>0.3 kmh</cmt></trkpt>
<trkpt lat="52.076900" lon="05.722080"><ele>53</ele><time>2018-04-13T12:40:00Z</time><cmt>0.7 kmh</cmt></trkpt>
<trkpt lat="52.076897" lon="05.722077"><ele>53</ele><time>2018-04-13T12:40:01Z</time><cmt>1.6 kmh</cmt></trkpt>
<trkpt lat="52.076895" lon="05.722077"><ele>53</ele><time>2018-04-13T12:40:02Z</time><cmt>1.1 kmh</cmt></trkpt>
<trkpt lat="52.076890" lon="05.722082"><ele>53</ele><time>2018-04-13T12:40:03Z</time><cmt>1.8 kmh</cmt></trkpt>
<trkpt lat="52.076884" lon="05.722085"><ele>53</ele><time>2018-04-13T12:40:04Z</time><cmt>2.7 kmh</cmt></trkpt>
<trkpt lat="52.076869" lon="05.722080"><ele>53</ele><time>2018-04-13T12:40:05Z</time><cmt>3.6 kmh</cmt></trkpt>
<trkpt lat="52.076853" lon="05.722077"><ele>53</ele><time>2018-04-13T12:40:06Z</time><cmt>5.0 kmh</cmt></trkpt>
<trkpt lat="52.076838" lon="05.722072"><ele>53</ele><time>2018-04-13T12:40:07Z</time><cmt>5.0 kmh</cmt></trkpt>
<trkpt lat="52.076828" lon="05.722073"><ele>53</ele><time>2018-04-13T12:40:08Z</time><cmt>5.0 kmh</cmt></trkpt>
<trkpt lat="52.076821" lon="05.722075"><ele>53</ele><time>2018-04-13T12:40:09Z</time><cmt>3.7 kmh</cmt></trkpt>
<trkpt lat="52.076806" lon="05.722083"><ele>53</ele><time>2018-04-13T12:40:10Z</time><cmt>5.0 kmh</cmt></trkpt>
<trkpt lat="52.076792" lon="05.722090"><ele>52</ele><time>2018-04-13T12:40:11Z</time><cmt>5.0 kmh</cmt></trkpt>
<trkpt lat="52.076777" lon="05.722098"><ele>52</ele><time>2018-04-13T12:40:12Z</time><cmt>5.0 kmh</cmt></trkpt>
<trkpt lat="52.076763" lon="05.722107"><ele>52</ele><time>2018-04-13T12:40:13Z</time><cmt>5.0 kmh</cmt></trkpt>
<trkpt lat="52.076748" lon="05.722113"><ele>51</ele><time>2018-04-13T12:40:14Z</time><cmt>5.0 kmh</cmt></trkpt>
<trkpt lat="52.076738" lon="05.722124"><ele>51</ele><time>2018-04-13T12:40:15Z</time><cmt>5.0 kmh</cmt></trkpt>
<trkpt lat="52.076731" lon="05.722138"><ele>50</ele><time>2018-04-13T12:40:16Z</time><cmt>5.0 kmh</cmt></trkpt>
<trkpt lat="52.076726" lon="05.722153"><ele>50</ele><time>2018-04-13T12:40:17Z</time><cmt>4.7 kmh</cmt></trkpt>
<trkpt lat="52.076715" lon="05.722170"><ele>50</ele><time>2018-04-13T12:40:18Z</time><cmt>4.4 kmh</cmt></trkpt>
<trkpt lat="52.076705" lon="05.722185"><ele>50</ele><time>2018-04-13T12:40:19Z</time><cmt>4.9 kmh</cmt></trkpt>
<trkpt lat="52.076694" lon="05.722198"><ele>49</ele><time>2018-04-13T12:40:20Z</time><cmt>5.0 kmh</cmt></trkpt>
<trkpt lat="52.076683" lon="05.722214"><ele>49</ele><time>2018-04-13T12:40:21Z</time><cmt>5.0 kmh</cmt></trkpt>
<trkpt lat="52.076671" lon="05.722226"><ele>49</ele><time>2018-04-13T12:40:22Z</time><cmt>5.0 kmh</cmt></trkpt>
<trkpt lat="52.076659" lon="05.722233"><ele>49</ele><time>2018-04-13T12:40:23Z</time><cmt>5.0 kmh</cmt></trkpt>
<trkpt lat="52.076649" lon="05.722242"><ele>49</ele><time>2018-04-13T12:40:24Z</time><cmt>4.2 kmh</cmt></trkpt>
<trkpt lat="52.076639" lon="05.722248"><ele>48</ele><time>2018-04-13T12:40:25Z</time><cmt>3.9 kmh</cmt></trkpt>
<trkpt lat="52.076630" lon="05.722257"><ele>48</ele><time>2018-04-13T12:40:26Z</time><cmt>4.7 kmh</cmt></trkpt>
<trkpt lat="52.076622" lon="05.722266"><ele>48</ele><time>2018-04-13T12:40:27Z</time><cmt>4.3 kmh</cmt></trkpt>
<trkpt lat="52.076615" lon="05.722286"><ele>48</ele><time>2018-04-13T12:40:28Z</time><cmt>5.0 kmh</cmt></trkpt>
<trkpt lat="52.076609" lon="05.722303"><ele>48</ele><time>2018-04-13T12:40:29Z</time><cmt>5.0 kmh</cmt></trkpt>
<trkpt lat="52.076605" lon="05.722318"><ele>48</ele><time>2018-04-13T12:40:30Z</time><cmt>3.9 kmh</cmt></trkpt>
<trkpt lat="52.076598" lon="05.722331"><ele>48</ele><time>2018-04-13T12:40:31Z</time><cmt>3.6 kmh</cmt></trkpt>
<trkpt lat="52.076585" lon="05.722348"><ele>48</ele><time>2018-04-13T12:40:32Z</time><cmt>5.0 kmh</cmt></trkpt>
<trkpt lat="52.076573" lon="05.722364"><ele>48</ele><time>2018-04-13T12:40:33Z</time><cmt>5.0 kmh</cmt></trkpt>
<trkpt lat="52.076543" lon="05.722396"><ele>47</ele><time>2018-04-13T12:40:38Z</time><cmt>4.4 kmh</cmt></trkpt>
<trkpt lat="52.076518" lon="05.722434"><ele>46</ele><time>2018-04-13T12:40:41Z</time><cmt>4.8 kmh</cmt></trkpt>
<trkpt lat="52.076483" lon="05.722479"><ele>46</ele><time>2018-04-13T12:40:45Z</time><cmt>4.3 kmh</cmt></trkpt>
<trkpt lat="52.076451" lon="05.722519"><ele>44</ele><time>2018-04-13T12:40:49Z</time><cmt>4.4 kmh</cmt></trkpt>
<trkpt lat="52.076421" lon="05.722540"><ele>44</ele><time>2018-04-13T12:40:52Z</time><cmt>3.9 kmh</cmt></trkpt>
<trkpt lat="52.076388" lon="05.722572"><ele>43</ele><time>2018-04-13T12:40:55Z</time><cmt>5.0 kmh</cmt></trkpt>
<trkpt lat="52.076366" lon="05.722619"><ele>43</ele><time>2018-04-13T12:40:58Z</time><cmt>4.5 kmh</cmt></trkpt>
<trkpt lat="52.076343" lon="05.722679"><ele>42</ele><time>2018-04-13T12:41:02Z</time><cmt>4.2 kmh</cmt></trkpt>
<trkpt lat="52.076291" lon="05.722713"><ele>43</ele><time>2018-04-13T12:41:07Z</time><cmt>5.0 kmh</cmt></trkpt>
<trkpt lat="52.076261" lon="05.722751"><ele>43</ele><time>2018-04-13T12:41:10Z</time><cmt>4.6 kmh</cmt></trkpt>
<trkpt lat="52.076231" lon="05.722788"><ele>43</ele><time>2018-04-13T12:41:14Z</time><cmt>4.1 kmh</cmt></trkpt>
<trkpt lat="52.076198" lon="05.722844"><ele>42</ele><time>2018-04-13T12:41:17Z</time><cmt>5.4 kmh</cmt></trkpt>
<trkpt lat="52.076169" lon="05.722880"><ele>42</ele><time>2018-04-13T12:41:19Z</time><cmt>5.4 kmh</cmt></trkpt>
<trkpt lat="52.076139" lon="05.722909"><ele>41</ele><time>2018-04-13T12:41:21Z</time><cmt>5.0 kmh</cmt></trkpt>
<trkpt lat="52.076105" lon="05.722931"><ele>41</ele><time>2018-04-13T12:41:23Z</time><cmt>5.2 kmh</cmt></trkpt>
<trkpt lat="52.076066" lon="05.722968"><ele>40</ele><time>2018-04-13T12:41:26Z</time><cmt>5.0 kmh</cmt></trkpt>
<trkpt lat="52.076032" lon="05.723014"><ele>40</ele><time>2018-04-13T12:41:29Z</time><cmt>5.0 kmh</cmt></trkpt>
<trkpt lat="52.076005" lon="05.723083"><ele>39</ele><time>2018-04-13T12:41:33Z</time><cmt>5.0 kmh</cmt></trkpt>
<trkpt lat="52.075979" lon="05.723128"><ele>39</ele><time>2018-04-13T12:41:36Z</time><cmt>4.8 kmh</cmt></trkpt>
<trkpt lat="52.075953" lon="05.723181"><ele>39</ele><time>2018-04-13T12:41:40Z</time><cmt>5.2 kmh</cmt></trkpt>
<trkpt lat="52.075924" lon="05.723230"><ele>39</ele><time>2018-04-13T12:41:43Z</time><cmt>5.0 kmh</cmt></trkpt>
<trkpt lat="52.075892" lon="05.723262"><ele>39</ele><time>2018-04-13T12:41:46Z</time><cmt>5.3 kmh</cmt></trkpt>
<trkpt lat="52.075863" lon="05.723288"><ele>38</ele><time>2018-04-13T12:41:49Z</time><cmt>4.1 kmh</cmt></trkpt>
<trkpt lat="52.075838" lon="05.723329"><ele>39</ele><time>2018-04-13T12:41:53Z</time><cmt>3.4 kmh</cmt></trkpt>
<trkpt lat="52.075816" lon="05.723359"><ele>39</ele><time>2018-04-13T12:41:56Z</time><cmt>4.2 kmh</cmt></trkpt>
<trkpt lat="52.075790" lon="05.723399"><ele>39</ele><time>2018-04-13T12:41:59Z</time><cmt>5.0 kmh</cmt></trkpt>
<trkpt lat="52.075767" lon="05.723441"><ele>39</ele><time>2018-04-13T12:42:02Z</time><cmt>4.2 kmh</cmt></trkpt>
<trkpt lat="52.075742" lon="05.723477"><ele>39</ele><time>2018-04-13T12:42:04Z</time><cmt>5.0 kmh</cmt></trkpt>
<trkpt lat="52.075710" lon="05.723524"><ele>39</ele><time>2018-04-13T12:42:06Z</time><cmt>5.0 kmh</cmt></trkpt>
<trkpt lat="52.075674" lon="05.723568"><ele>39</ele><time>2018-04-13T12:42:08Z</time><cmt>5.0 kmh</cmt></trkpt>
<trkpt lat="52.075652" lon="05.723602"><ele>39</ele><time>2018-04-13T12:42:10Z</time><cmt>5.0 kmh</cmt></trkpt>
<trkpt lat="52.075630" lon="05.723628"><ele>39</ele><time>2018-04-13T12:42:12Z</time><cmt>5.0 kmh</cmt></trkpt>
<trkpt lat="52.075602" lon="05.723661"><ele>39</ele><time>2018-04-13T12:42:15Z</time><cmt>5.5 kmh</cmt></trkpt>
<trkpt lat="52.075564" lon="05.723705"><ele>39</ele><time>2018-04-13T12:42:19Z</time><cmt>4.5 kmh</cmt></trkpt>
<trkpt lat="52.075345" lon="05.723453"><ele>43</ele><time>2018-04-13T12:43:08Z</time><cmt>5.0 kmh</cmt></trkpt>
<trkpt lat="52.075308" lon="05.723386"><ele>42</ele><time>2018-04-13T12:43:12Z</time><cmt>5.0 kmh</cmt></trkpt>
<trkpt lat="52.075244" lon="05.723277"><ele>41</ele><time>2018-04-13T12:43:19Z</time><cmt>5.0 kmh</cmt></trkpt>
<trkpt lat="52.075151" lon="05.723101"><ele>37</ele><time>2018-04-13T12:43:29Z</time><cmt>5.0 kmh</cmt></trkpt>
<trkpt lat="52.074878" lon="05.722462"><ele>37</ele><time>2018-04-13T12:44:22Z</time><cmt>5.0 kmh</cmt></trkpt>
<trkpt lat="52.074791" lon="05.722332"><ele>37</ele><time>2018-04-13T12:44:32Z</time><cmt>5.0 kmh</cmt></trkpt>
<trkpt lat="52.074718" lon="05.722241"><ele>37</ele><time>2018-04-13T12:44:38Z</time><cmt>5.0 kmh</cmt></trkpt>
<trkpt lat="52.074676" lon="05.722189"><ele>37</ele><time>2018-04-13T12:44:42Z</time><cmt>5.0 kmh</cmt></trkpt>
<trkpt lat="52.074619" lon="05.722151"><ele>37</ele><time>2018-04-13T12:44:45Z</time><cmt>5.0 kmh</cmt></trkpt>
<trkpt lat="52.074570" lon="05.722107"><ele>37</ele><time>2018-04-13T12:44:50Z</time><cmt>5.0 kmh</cmt></trkpt>
<trkpt lat="52.074486" lon="05.721817"><ele>37</ele><time>2018-04-13T12:45:07Z</time><cmt>5.0 kmh</cmt></trkpt>
<trkpt lat="52.074448" lon="05.721754"><ele>37</ele><time>2018-04-13T12:45:11Z</time><cmt>5.0 kmh</cmt></trkpt>
<trkpt lat="52.074429" lon="05.721672"><ele>37</ele><time>2018-04-13T12:45:14Z</time><cmt>5.0 kmh</cmt></trkpt>
<trkpt lat="52.074414" lon="05.721596"><ele>37</ele><time>2018-04-13T12:45:17Z</time><cmt>5.0 kmh</cmt></trkpt>
<trkpt lat="52.074369" lon="05.721475"><ele>37</ele><time>2018-04-13T12:45:23Z</time><cmt>5.0 kmh</cmt></trkpt>
<trkpt lat="52.074340" lon="05.721415"><ele>37</ele><time>2018-04-13T12:45:26Z</time><cmt>5.0 kmh</cmt></trkpt>
<trkpt lat="52.074308" lon="05.721327"><ele>37</ele><time>2018-04-13T12:45:30Z</time><cmt>5.0 kmh</cmt></trkpt>
<trkpt lat="52.074279" lon="05.721266"><ele>37</ele><time>2018-04-13T12:45:33Z</time><cmt>5.0 kmh</cmt></trkpt>
<trkpt lat="52.074250" lon="05.721202"><ele>37</ele><time>2018-04-13T12:45:36Z</time><cmt>5.0 kmh</cmt></trkpt>
<trkpt lat="52.074220" lon="05.721121"><ele>37</ele><time>2018-04-13T12:45:40Z</time><cmt>5.0 kmh</cmt></trkpt>
<trkpt lat="52.074168" lon="05.720972"><ele>12</ele><time>2018-04-13T12:45:48Z</time><cmt>5.0 kmh</cmt></trkpt>
<trkpt lat="52.074147" lon="05.720913"><ele>11</ele><time>2018-04-13T12:45:51Z</time><cmt>5.0 kmh</cmt></trkpt>
<trkpt lat="52.074124" lon="05.720845"><ele>10</ele><time>2018-04-13T12:45:54Z</time><cmt>5.0 kmh</cmt></trkpt>
<trkpt lat="52.074089" lon="05.720786"><ele>10</ele><time>2018-04-13T12:45:57Z</time><cmt>5.0 kmh</cmt></trkpt>
<trkpt lat="52.074054" lon="05.720734"><ele>9</ele><time>2018-04-13T12:46:00Z</time><cmt>5.0 kmh</cmt></trkpt>
<trkpt lat="52.074022" lon="05.720668"><ele>10</ele><time>2018-04-13T12:46:04Z</time><cmt>5.0 kmh</cmt></trkpt>
<trkpt lat="52.073984" lon="05.720611"><ele>11</ele><time>2018-04-13T12:46:07Z</time><cmt>5.9 kmh</cmt></trkpt>
<trkpt lat="52.073904" lon="05.720401"><ele>16</ele><time>2018-04-13T12:46:18Z</time><cmt>5.0 kmh</cmt></trkpt>
<trkpt lat="52.073874" lon="05.720351"><ele>17</ele><time>2018-04-13T12:46:21Z</time><cmt>5.0 kmh</cmt></trkpt>
<trkpt lat="52.073790" lon="05.720209"><ele>20</ele><time>2018-04-13T12:46:31Z</time><cmt>5.0 kmh</cmt></trkpt>
<trkpt lat="52.073764" lon="05.720135"><ele>21</ele><time>2018-04-13T12:46:34Z</time><cmt>7.5 kmh</cmt></trkpt>
<trkpt lat="52.073637" lon="05.719938"><ele>24</ele><time>2018-04-13T12:46:43Z</time><cmt>5.0 kmh</cmt></trkpt>
<trkpt lat="52.073563" lon="05.719841"><ele>27</ele><time>2018-04-13T12:46:49Z</time><cmt>5.0 kmh</cmt></trkpt>
<trkpt lat="52.073542" lon="05.719796"><ele>28</ele><time>2018-04-13T12:46:51Z</time><cmt>5.0 kmh</cmt></trkpt>
<trkpt lat="52.073421" lon="05.719564"><ele>29</ele><time>2018-04-13T12:47:09Z</time><cmt>5.0 kmh</cmt></trkpt>
<trkpt lat="52.073394" lon="05.719430"><ele>35</ele><time>2018-04-13T12:47:27Z</time><cmt>5.0 kmh</cmt></trkpt>
<trkpt lat="52.073401" lon="05.719333"><ele>35</ele><time>2018-04-13T12:47:32Z</time><cmt>5.0 kmh</cmt></trkpt>
<trkpt lat="52.073424" lon="05.719261"><ele>36</ele><time>2018-04-13T12:47:35Z</time><cmt>5.0 kmh</cmt></trkpt>
<trkpt lat="52.073445" lon="05.719207"><ele>36</ele><time>2018-04-13T12:47:38Z</time><cmt>4.9 kmh</cmt></trkpt>
<trkpt lat="52.073452" lon="05.719147"><ele>38</ele><time>2018-04-13T12:47:42Z</time><cmt>4.1 kmh</cmt></trkpt>
<trkpt lat="52.073471" lon="05.719096"><ele>39</ele><time>2018-04-13T12:47:46Z</time><cmt>5.0 kmh</cmt></trkpt>
<trkpt lat="52.073495" lon="05.719061"><ele>39</ele><time>2018-04-13T12:47:49Z</time><cmt>4.6 kmh</cmt></trkpt>
<trkpt lat="52.073524" lon="05.719038"><ele>40</ele><time>2018-04-13T12:47:51Z</time><cmt>5.7 kmh</cmt></trkpt>
<trkpt lat="52.073549" lon="05.719011"><ele>41</ele><time>2018-04-13T12:47:54Z</time><cmt>4.4 kmh</cmt></trkpt>
<trkpt lat="52.073597" lon="05.718948"><ele>42</ele><time>2018-04-13T12:48:00Z</time><cmt>5.0 kmh</cmt></trkpt>
<trkpt lat="52.073632" lon="05.718903"><ele>43</ele><time>2018-04-13T12:48:03Z</time><cmt>5.0 kmh</cmt></trkpt>
<trkpt lat="52.073675" lon="05.718842"><ele>43</ele><time>2018-04-13T12:48:07Z</time><cmt>5.0 kmh</cmt></trkpt>
<trkpt lat="52.073705" lon="05.718795"><ele>43</ele><time>2018-04-13T12:48:09Z</time><cmt>5.0 kmh</cmt></trkpt>
<trkpt lat="52.073748" lon="05.718735"><ele>43</ele><time>2018-04-13T12:48:12Z</time><cmt>5.0 kmh</cmt></trkpt>
<trkpt lat="52.073791" lon="05.718671"><ele>43</ele><time>2018-04-13T12:48:15Z</time><cmt>5.4 kmh</cmt></trkpt>
<trkpt lat="52.073833" lon="05.718585"><ele>44</ele><time>2018-04-13T12:48:21Z</time><cmt>5.0 kmh</cmt></trkpt>
<trkpt lat="52.073673" lon="05.718272"><ele>54</ele><time>2018-04-13T12:48:57Z</time><cmt>5.0 kmh</cmt></trkpt>
<trkpt lat="52.073671" lon="05.718202"><ele>55</ele><time>2018-04-13T12:49:04Z</time><cmt>4.6 kmh</cmt></trkpt>
<trkpt lat="52.073617" lon="05.718098"><ele>54</ele><time>2018-04-13T12:49:12Z</time><cmt>5.0 kmh</cmt></trkpt>
<trkpt lat="52.073552" lon="05.717980"><ele>52</ele><time>2018-04-13T12:49:23Z</time><cmt>5.0 kmh</cmt></trkpt>
<trkpt lat="52.073372" lon="05.717598"><ele>46</ele><time>2018-04-13T12:49:55Z</time><cmt>5.0 kmh</cmt></trkpt>
<trkpt lat="52.073347" lon="05.717536"><ele>45</ele><time>2018-04-13T12:49:59Z</time><cmt>4.3 kmh</cmt></trkpt>
<trkpt lat="52.073361" lon="05.717438"><ele>46</ele><time>2018-04-13T12:50:07Z</time><cmt>5.0 kmh</cmt></trkpt>
<trkpt lat="52.073303" lon="05.717324"><ele>53</ele><time>2018-04-13T12:50:22Z</time><cmt>5.0 kmh</cmt></trkpt>
<trkpt lat="52.073073" lon="05.717151"><ele>50</ele><time>2018-04-13T12:51:25Z</time><cmt>5.0 kmh</cmt></trkpt>
<trkpt lat="52.073042" lon="05.717040"><ele>48</ele><time>2018-04-13T12:51:36Z</time><cmt>5.0 kmh</cmt></trkpt>
<trkpt lat="52.073038" lon="05.717030"><ele>48</ele><time>2018-04-13T12:51:37Z</time><cmt>5.0 kmh</cmt></trkpt>
<trkpt lat="52.073034" lon="05.717021"><ele>48</ele><time>2018-04-13T12:51:38Z</time><cmt>3.1 kmh</cmt></trkpt>
<trkpt lat="52.073037" lon="05.717010"><ele>48</ele><time>2018-04-13T12:51:39Z</time><cmt>2.5 kmh</cmt></trkpt>
<trkpt lat="52.073038" lon="05.717003"><ele>48</ele><time>2018-04-13T12:51:40Z</time><cmt>2.1 kmh</cmt></trkpt>
<trkpt lat="52.073038" lon="05.716997"><ele>48</ele><time>2018-04-13T12:51:41Z</time><cmt>1.8 kmh</cmt></trkpt>
<trkpt lat="52.073040" lon="05.716987"><ele>47</ele><time>2018-04-13T12:51:42Z</time><cmt>2.2 kmh</cmt></trkpt>
<trkpt lat="52.073035" lon="05.716977"><ele>47</ele><time>2018-04-13T12:51:43Z</time><cmt>2.9 kmh</cmt></trkpt>
<trkpt lat="52.073030" lon="05.716967"><ele>47</ele><time>2018-04-13T12:51:44Z</time><cmt>3.3 kmh</cmt></trkpt>
<trkpt lat="52.073022" lon="05.716951"><ele>47</ele><time>2018-04-13T12:51:45Z</time><cmt>3.6 kmh</cmt></trkpt>
<trkpt lat="52.073014" lon="05.716934"><ele>46</ele><time>2018-04-13T12:51:46Z</time><cmt>4.5 kmh</cmt></trkpt>
<trkpt lat="52.073009" lon="05.716920"><ele>46</ele><time>2018-04-13T12:51:47Z</time><cmt>4.9 kmh</cmt></trkpt>
<trkpt lat="52.073008" lon="05.716902"><ele>46</ele><time>2018-04-13T12:51:48Z</time><cmt>4.5 kmh</cmt></trkpt>
<trkpt lat="52.073005" lon="05.716883"><ele>45</ele><time>2018-04-13T12:51:49Z</time><cmt>4.9 kmh</cmt></trkpt>
<trkpt lat="52.073000" lon="05.716870"><ele>45</ele><time>2018-04-13T12:51:50Z</time><cmt>4.7 kmh</cmt></trkpt>
<trkpt lat="52.072993" lon="05.716862"><ele>45</ele><time>2018-04-13T12:51:51Z</time><cmt>3.8 kmh</cmt></trkpt>
<trkpt lat="52.072986" lon="05.716853"><ele>45</ele><time>2018-04-13T12:51:52Z</time><cmt>3.0 kmh</cmt></trkpt>
<trkpt lat="52.072977" lon="05.716842"><ele>45</ele><time>2018-04-13T12:51:53Z</time><cmt>3.6 kmh</cmt></trkpt>
<trkpt lat="52.072974" lon="05.716836"><ele>44</ele><time>2018-04-13T12:51:54Z</time><cmt>3.5 kmh</cmt></trkpt>
<trkpt lat="52.072973" lon="05.716823"><ele>44</ele><time>2018-04-13T12:51:55Z</time><cmt>2.7 kmh</cmt></trkpt>
<trkpt lat="52.072971" lon="05.716806"><ele>44</ele><time>2018-04-13T12:51:56Z</time><cmt>3.9 kmh</cmt></trkpt>
<trkpt lat="52.072970" lon="05.716784"><ele>44</ele><time>2018-04-13T12:51:57Z</time><cmt>5.0 kmh</cmt></trkpt>
<trkpt lat="52.072967" lon="05.716770"><ele>44</ele><time>2018-04-13T12:51:58Z</time><cmt>4.0 kmh</cmt></trkpt>
<trkpt lat="52.072962" lon="05.716753"><ele>43</ele><time>2018-04-13T12:51:59Z</time><cmt>3.6 kmh</cmt></trkpt>
<trkpt lat="52.072958" lon="05.716742"><ele>43</ele><time>2018-04-13T12:52:00Z</time><cmt>4.1 kmh</cmt></trkpt>
<trkpt lat="52.072952" lon="05.716732"><ele>43</ele><time>2018-04-13T12:52:01Z</time><cmt>3.5 kmh</cmt></trkpt>
<trkpt lat="52.072948" lon="05.716722"><ele>43</ele><time>2018-04-13T12:52:02Z</time><cmt>3.4 kmh</cmt></trkpt>
<trkpt lat="52.072946" lon="05.716712"><ele>43</ele><time>2018-04-13T12:52:03Z</time><cmt>2.9 kmh</cmt></trkpt>
<trkpt lat="52.072943" lon="05.716700"><ele>42</ele><time>2018-04-13T12:52:04Z</time><cmt>2.5 kmh</cmt></trkpt>
<trkpt lat="52.072940" lon="05.716686"><ele>42</ele><time>2018-04-13T12:52:05Z</time><cmt>3.0 kmh</cmt></trkpt>
<trkpt lat="52.072931" lon="05.716663"><ele>42</ele><time>2018-04-13T12:52:06Z</time><cmt>5.0 kmh</cmt></trkpt>
<trkpt lat="52.072925" lon="05.716649"><ele>42</ele><time>2018-04-13T12:52:07Z</time><cmt>5.0 kmh</cmt></trkpt>
<trkpt lat="52.072917" lon="05.716631"><ele>42</ele><time>2018-04-13T12:52:08Z</time><cmt>5.0 kmh</cmt></trkpt>
<trkpt lat="52.072905" lon="05.716611"><ele>41</ele><time>2018-04-13T12:52:09Z</time><cmt>5.0 kmh</cmt></trkpt>
<trkpt lat="52.072899" lon="05.716596"><ele>41</ele><time>2018-04-13T12:52:10Z</time><cmt>5.0 kmh</cmt></trkpt>
<trkpt lat="52.072893" lon="05.716579"><ele>41</ele><time>2018-04-13T12:52:11Z</time><cmt>4.0 kmh</cmt></trkpt>
<trkpt lat="52.072889" lon="05.716557"><ele>41</ele><time>2018-04-13T12:52:12Z</time><cmt>4.5 kmh</cmt></trkpt>
<trkpt lat="52.072886" lon="05.716538"><ele>41</ele><time>2018-04-13T12:52:13Z</time><cmt>5.0 kmh</cmt></trkpt>
<trkpt lat="52.072880" lon="05.716520"><ele>41</ele><time>2018-04-13T12:52:14Z</time><cmt>5.0 kmh</cmt></trkpt>
<trkpt lat="52.072874" lon="05.716505"><ele>41</ele><time>2018-04-13T12:52:15Z</time><cmt>5.0 kmh</cmt></trkpt>
<trkpt lat="52.072872" lon="05.716491"><ele>41</ele><time>2018-04-13T12:52:16Z</time><cmt>4.2 kmh</cmt></trkpt>
<trkpt lat="52.072864" lon="05.716480"><ele>42</ele><time>2018-04-13T12:52:17Z</time><cmt>3.3 kmh</cmt></trkpt>
<trkpt lat="52.072855" lon="05.716463"><ele>42</ele><time>2018-04-13T12:52:18Z</time><cmt>5.0 kmh</cmt></trkpt>
<trkpt lat="52.072788" lon="05.716389"><ele>42</ele><time>2018-04-13T12:52:24Z</time><cmt>5.0 kmh</cmt></trkpt>
<trkpt lat="52.072781" lon="05.716372"><ele>42</ele><time>2018-04-13T12:52:25Z</time><cmt>5.0 kmh</cmt></trkpt>
<trkpt lat="52.072781" lon="05.716352"><ele>42</ele><time>2018-04-13T12:52:26Z</time><cmt>5.0 kmh</cmt></trkpt>
<trkpt lat="52.072774" lon="05.716327"><ele>42</ele><time>2018-04-13T12:52:27Z</time><cmt>5.0 kmh</cmt></trkpt>
<trkpt lat="52.072764" lon="05.716312"><ele>42</ele><time>2018-04-13T12:52:28Z</time><cmt>5.0 kmh</cmt></trkpt>
<trkpt lat="52.072755" lon="05.716298"><ele>42</ele><time>2018-04-13T12:52:29Z</time><cmt>5.0 kmh</cmt></trkpt>
<trkpt lat="52.072748" lon="05.716280"><ele>41</ele><time>2018-04-13T12:52:30Z</time><cmt>4.4 kmh</cmt></trkpt>
<trkpt lat="52.072742" lon="05.716265"><ele>41</ele><time>2018-04-13T12:52:31Z</time><cmt>4.3 kmh</cmt></trkpt>
<trkpt lat="52.072737" lon="05.716249"><ele>41</ele><time>2018-04-13T12:52:32Z</time><cmt>4.8 kmh</cmt></trkpt>
<trkpt lat="52.072732" lon="05.716239"><ele>41</ele><time>2018-04-13T12:52:33Z</time><cmt>4.0 kmh</cmt></trkpt>
<trkpt lat="52.072727" lon="05.716227"><ele>41</ele><time>2018-04-13T12:52:34Z</time><cmt>3.7 kmh</cmt></trkpt>
<trkpt lat="52.072721" lon="05.716217"><ele>40</ele><time>2018-04-13T12:52:35Z</time><cmt>3.8 kmh</cmt></trkpt>
<trkpt lat="52.072715" lon="05.716206"><ele>40</ele><time>2018-04-13T12:52:36Z</time><cmt>3.0 kmh</cmt></trkpt>
<trkpt lat="52.072711" lon="05.716195"><ele>40</ele><time>2018-04-13T12:52:37Z</time><cmt>2.9 kmh</cmt></trkpt>
<trkpt lat="52.072710" lon="05.716182"><ele>39</ele><time>2018-04-13T12:52:38Z</time><cmt>3.4 kmh</cmt></trkpt>
<trkpt lat="52.072697" lon="05.716118"><ele>36</ele><time>2018-04-13T12:52:45Z</time><cmt>5.0 kmh</cmt></trkpt>
<trkpt lat="52.072685" lon="05.715968"><ele>29</ele><time>2018-04-13T12:52:56Z</time><cmt>5.0 kmh</cmt></trkpt>
<trkpt lat="52.072200" lon="05.715140"><ele>33</ele><time>2018-04-13T12:54:38Z</time><cmt>5.0 kmh</cmt></trkpt>
<trkpt lat="52.072196" lon="05.715130"><ele>33</ele><time>2018-04-13T12:54:39Z</time><cmt>5.0 kmh</cmt></trkpt>
<trkpt lat="52.072190" lon="05.715115"><ele>33</ele><time>2018-04-13T12:54:40Z</time><cmt>4.0 kmh</cmt></trkpt>
<trkpt lat="52.072184" lon="05.715102"><ele>33</ele><time>2018-04-13T12:54:41Z</time><cmt>4.5 kmh</cmt></trkpt>
<trkpt lat="52.072181" lon="05.715085"><ele>34</ele><time>2018-04-13T12:54:42Z</time><cmt>4.5 kmh</cmt></trkpt>
<trkpt lat="52.072174" lon="05.715074"><ele>34</ele><time>2018-04-13T12:54:43Z</time><cmt>3.6 kmh</cmt></trkpt>
<trkpt lat="52.072168" lon="05.715065"><ele>34</ele><time>2018-04-13T12:54:44Z</time><cmt>3.2 kmh</cmt></trkpt>
<trkpt lat="52.072162" lon="05.715056"><ele>34</ele><time>2018-04-13T12:54:45Z</time><cmt>3.6 kmh</cmt></trkpt>
<trkpt lat="52.072152" lon="05.715040"><ele>34</ele><time>2018-04-13T12:54:46Z</time><cmt>4.7 kmh</cmt></trkpt>
<trkpt lat="52.072145" lon="05.715029"><ele>34</ele><time>2018-04-13T12:54:47Z</time><cmt>5.0 kmh</cmt></trkpt>
<trkpt lat="52.072141" lon="05.715018"><ele>34</ele><time>2018-04-13T12:54:48Z</time><cmt>3.8 kmh</cmt></trkpt>
<trkpt lat="52.072139" lon="05.715010"><ele>34</ele><time>2018-04-13T12:54:49Z</time><cmt>3.0 kmh</cmt></trkpt>
<trkpt lat="52.072133" lon="05.714994"><ele>34</ele><time>2018-04-13T12:54:50Z</time><cmt>2.9 kmh</cmt></trkpt>
<trkpt lat="52.072124" lon="05.714981"><ele>34</ele><time>2018-04-13T12:54:51Z</time><cmt>4.0 kmh</cmt></trkpt>
<trkpt lat="52.072118" lon="05.714973"><ele>34</ele><time>2018-04-13T12:54:52Z</time><cmt>4.3 kmh</cmt></trkpt>
<trkpt lat="52.072112" lon="05.714961"><ele>34</ele><time>2018-04-13T12:54:53Z</time><cmt>3.7 kmh</cmt></trkpt>
<trkpt lat="52.072108" lon="05.714947"><ele>34</ele><time>2018-04-13T12:54:54Z</time><cmt>4.1 kmh</cmt></trkpt>
<trkpt lat="52.072106" lon="05.714933"><ele>33</ele><time>2018-04-13T12:54:55Z</time><cmt>3.9 kmh</cmt></trkpt>
<trkpt lat="52.072101" lon="05.714919"><ele>33</ele><time>2018-04-13T12:54:56Z</time><cmt>3.2 kmh</cmt></trkpt>
<trkpt lat="52.072094" lon="05.714906"><ele>33</ele><time>2018-04-13T12:54:57Z</time><cmt>3.6 kmh</cmt></trkpt>
<trkpt lat="52.072086" lon="05.714893"><ele>33</ele><time>2018-04-13T12:54:58Z</time><cmt>4.8 kmh</cmt></trkpt>
<trkpt lat="52.072081" lon="05.714876"><ele>33</ele><time>2018-04-13T12:54:59Z</time><cmt>5.0 kmh</cmt></trkpt>
<trkpt lat="52.072080" lon="05.714823"><ele>33</ele><time>2018-04-13T12:55:03Z</time><cmt>5.0 kmh</cmt></trkpt>
<trkpt lat="52.072019" lon="05.714646"><ele>25</ele><time>2018-04-13T12:55:19Z</time><cmt>5.0 kmh</cmt></trkpt>
<trkpt lat="52.072002" lon="05.714607"><ele>23</ele><time>2018-04-13T12:55:22Z</time><cmt>3.7 kmh</cmt></trkpt>
<trkpt lat="52.071867" lon="05.714337"><ele>23</ele><time>2018-04-13T12:55:43Z</time><cmt>5.0 kmh</cmt></trkpt>
<trkpt lat="52.071830" lon="05.714282"><ele>23</ele><time>2018-04-13T12:55:46Z</time><cmt>5.0 kmh</cmt></trkpt>
<trkpt lat="52.071809" lon="05.714243"><ele>23</ele><time>2018-04-13T12:55:48Z</time><cmt>5.0 kmh</cmt></trkpt>
<trkpt lat="52.071783" lon="05.714214"><ele>23</ele><time>2018-04-13T12:55:50Z</time><cmt>5.0 kmh</cmt></trkpt>
<trkpt lat="52.071758" lon="05.714175"><ele>10</ele><time>2018-04-13T12:55:53Z</time><cmt>5.0 kmh</cmt></trkpt>
<trkpt lat="52.071573" lon="05.713831"><ele>4</ele><time>2018-04-13T12:56:14Z</time><cmt>5.0 kmh</cmt></trkpt>
<trkpt lat="52.071483" lon="05.713678"><ele>3</ele><time>2018-04-13T12:56:25Z</time><cmt>5.0 kmh</cmt></trkpt>
<trkpt lat="52.071395" lon="05.713504"><ele>2</ele><time>2018-04-13T12:56:35Z</time><cmt>5.0 kmh</cmt></trkpt>
<trkpt lat="52.071349" lon="05.713422"><ele>3</ele><time>2018-04-13T12:56:40Z</time><cmt>5.0 kmh</cmt></trkpt>
<trkpt lat="52.071259" lon="05.713301"><ele>8</ele><time>2018-04-13T12:56:52Z</time><cmt>5.0 kmh</cmt></trkpt>
<trkpt lat="52.071234" lon="05.713235"><ele>9</ele><time>2018-04-13T12:56:54Z</time><cmt>5.0 kmh</cmt></trkpt>
<trkpt lat="52.071209" lon="05.713175"><ele>11</ele><time>2018-04-13T12:56:56Z</time><cmt>5.0 kmh</cmt></trkpt>
<trkpt lat="52.071190" lon="05.713133"><ele>12</ele><time>2018-04-13T12:56:58Z</time><cmt>5.0 kmh</cmt></trkpt>
<trkpt lat="52.071165" lon="05.713087"><ele>15</ele><time>2018-04-13T12:57:01Z</time><cmt>5.0 kmh</cmt></trkpt>
<trkpt lat="52.071142" lon="05.713054"><ele>16</ele><time>2018-04-13T12:57:03Z</time><cmt>5.0 kmh</cmt></trkpt>
<trkpt lat="52.071112" lon="05.713036"><ele>18</ele><time>2018-04-13T12:57:05Z</time><cmt>5.0 kmh</cmt></trkpt>
<trkpt lat="52.071084" lon="05.712985"><ele>20</ele><time>2018-04-13T12:57:08Z</time><cmt>5.0 kmh</cmt></trkpt>
<trkpt lat="52.071052" lon="05.712941"><ele>21</ele><time>2018-04-13T12:57:10Z</time><cmt>5.0 kmh</cmt></trkpt>
<trkpt lat="52.071029" lon="05.712903"><ele>22</ele><time>2018-04-13T12:57:12Z</time><cmt>5.0 kmh</cmt></trkpt>
<trkpt lat="52.070952" lon="05.712750"><ele>29</ele><time>2018-04-13T12:57:30Z</time><cmt>5.0 kmh</cmt></trkpt>
<trkpt lat="52.070946" lon="05.712652"><ele>25</ele><time>2018-04-13T12:57:50Z</time><cmt>5.0 kmh</cmt></trkpt>
<trkpt lat="52.070952" lon="05.712591"><ele>25</ele><time>2018-04-13T12:57:53Z</time><cmt>5.0 kmh</cmt></trkpt>
<trkpt lat="52.070977" lon="05.712527"><ele>26</ele><time>2018-04-13T12:57:58Z</time><cmt>5.0 kmh</cmt></trkpt>
<trkpt lat="52.070988" lon="05.712491"><ele>26</ele><time>2018-04-13T12:58:00Z</time><cmt>5.0 kmh</cmt></trkpt>
<trkpt lat="52.071002" lon="05.712420"><ele>27</ele><time>2018-04-13T12:58:04Z</time><cmt>4.4 kmh</cmt></trkpt>
<trkpt lat="52.071013" lon="05.712366"><ele>27</ele><time>2018-04-13T12:58:07Z</time><cmt>5.0 kmh</cmt></trkpt>
<trkpt lat="52.071018" lon="05.712267"><ele>28</ele><time>2018-04-13T12:58:12Z</time><cmt>5.0 kmh</cmt></trkpt>
<trkpt lat="52.071025" lon="05.712204"><ele>29</ele><time>2018-04-13T12:58:14Z</time><cmt>5.0 kmh</cmt></trkpt>
<trkpt lat="52.071028" lon="05.712188"><ele>29</ele><time>2018-04-13T12:58:15Z</time><cmt>5.0 kmh</cmt></trkpt>
<trkpt lat="52.071035" lon="05.712173"><ele>29</ele><time>2018-04-13T12:58:16Z</time><cmt>3.8 kmh</cmt></trkpt>
<trkpt lat="52.071045" lon="05.712154"><ele>29</ele><time>2018-04-13T12:58:17Z</time><cmt>5.0 kmh</cmt></trkpt>
<trkpt lat="52.071056" lon="05.712135"><ele>30</ele><time>2018-04-13T12:58:18Z</time><cmt>5.0 kmh</cmt></trkpt>
<trkpt lat="52.071064" lon="05.712119"><ele>30</ele><time>2018-04-13T12:58:19Z</time><cmt>5.0 kmh</cmt></trkpt>
<trkpt lat="52.071073" lon="05.712101"><ele>30</ele><time>2018-04-13T12:58:20Z</time><cmt>5.0 kmh</cmt></trkpt>
<trkpt lat="52.071085" lon="05.712080"><ele>30</ele><time>2018-04-13T12:58:21Z</time><cmt>5.0 kmh</cmt></trkpt>
<trkpt lat="52.071093" lon="05.712063"><ele>29</ele><time>2018-04-13T12:58:22Z</time><cmt>5.0 kmh</cmt></trkpt>
<trkpt lat="52.071098" lon="05.712043"><ele>29</ele><time>2018-04-13T12:58:23Z</time><cmt>5.0 kmh</cmt></trkpt>
<trkpt lat="52.071107" lon="05.712021"><ele>29</ele><time>2018-04-13T12:58:24Z</time><cmt>5.0 kmh</cmt></trkpt>
<trkpt lat="52.071114" lon="05.712008"><ele>29</ele><time>2018-04-13T12:58:25Z</time><cmt>5.0 kmh</cmt></trkpt>
<trkpt lat="52.071116" lon="05.711995"><ele>29</ele><time>2018-04-13T12:58:26Z</time><cmt>4.0 kmh</cmt></trkpt>
<trkpt lat="52.071116" lon="05.711983"><ele>29</ele><time>2018-04-13T12:58:27Z</time><cmt>3.5 kmh</cmt></trkpt>
<trkpt lat="52.071120" lon="05.711969"><ele>29</ele><time>2018-04-13T12:58:28Z</time><cmt>3.0 kmh</cmt></trkpt>
<trkpt lat="52.071123" lon="05.711955"><ele>29</ele><time>2018-04-13T12:58:29Z</time><cmt>3.1 kmh</cmt></trkpt>
<trkpt lat="52.071130" lon="05.711936"><ele>29</ele><time>2018-04-13T12:58:30Z</time><cmt>4.9 kmh</cmt></trkpt>
<trkpt lat="52.071133" lon="05.711917"><ele>28</ele><time>2018-04-13T12:58:31Z</time><cmt>5.0 kmh</cmt></trkpt>
<trkpt lat="52.071137" lon="05.711902"><ele>28</ele><time>2018-04-13T12:58:32Z</time><cmt>4.8 kmh</cmt></trkpt>
<trkpt lat="52.071142" lon="05.711885"><ele>28</ele><time>2018-04-13T12:58:33Z</time><cmt>4.6 kmh</cmt></trkpt>
<trkpt lat="52.071150" lon="05.711861"><ele>28</ele><time>2018-04-13T12:58:34Z</time><cmt>4.9 kmh</cmt></trkpt>
<trkpt lat="52.071157" lon="05.711847"><ele>28</ele><time>2018-04-13T12:58:35Z</time><cmt>4.9 kmh</cmt></trkpt>
<trkpt lat="52.071157" lon="05.711834"><ele>28</ele><time>2018-04-13T12:58:36Z</time><cmt>4.1 kmh</cmt></trkpt>
<trkpt lat="52.071158" lon="05.711823"><ele>27</ele><time>2018-04-13T12:58:37Z</time><cmt>3.1 kmh</cmt></trkpt>
<trkpt lat="52.071162" lon="05.711806"><ele>27</ele><time>2018-04-13T12:58:38Z</time><cmt>3.8 kmh</cmt></trkpt>
<trkpt lat="52.071164" lon="05.711795"><ele>27</ele><time>2018-04-13T12:58:39Z</time><cmt>4.0 kmh</cmt></trkpt>
<trkpt lat="52.071165" lon="05.711783"><ele>27</ele><time>2018-04-13T12:58:40Z</time><cmt>2.5 kmh</cmt></trkpt>
<trkpt lat="52.071167" lon="05.711765"><ele>27</ele><time>2018-04-13T12:58:41Z</time><cmt>3.2 kmh</cmt></trkpt>
<trkpt lat="52.071173" lon="05.711746"><ele>27</ele><time>2018-04-13T12:58:42Z</time><cmt>5.0 kmh</cmt></trkpt>
<trkpt lat="52.071178" lon="05.711729"><ele>27</ele><time>2018-04-13T12:58:43Z</time><cmt>5.0 kmh</cmt></trkpt>
<trkpt lat="52.071179" lon="05.711651"><ele>27</ele><time>2018-04-13T12:58:49Z</time><cmt>4.6 kmh</cmt></trkpt>
<trkpt lat="52.071180" lon="05.711619"><ele>27</ele><time>2018-04-13T12:58:50Z</time><cmt>5.0 kmh</cmt></trkpt>
<trkpt lat="52.071184" lon="05.711601"><ele>27</ele><time>2018-04-13T12:58:51Z</time><cmt>5.0 kmh</cmt></trkpt>
<trkpt lat="52.071200" lon="05.711562"><ele>27</ele><time>2018-04-13T12:58:54Z</time><cmt>3.6 kmh</cmt></trkpt>
<trkpt lat="52.071208" lon="05.711503"><ele>28</ele><time>2018-04-13T12:58:57Z</time><cmt>5.0 kmh</cmt></trkpt>
<trkpt lat="52.071207" lon="05.711491"><ele>28</ele><time>2018-04-13T12:58:58Z</time><cmt>5.0 kmh</cmt></trkpt>
<trkpt lat="52.071210" lon="05.711477"><ele>28</ele><time>2018-04-13T12:58:59Z</time><cmt>2.9 kmh</cmt></trkpt>
<trkpt lat="52.071212" lon="05.711463"><ele>28</ele><time>2018-04-13T12:59:00Z</time><cmt>3.1 kmh</cmt></trkpt>
<trkpt lat="52.071213" lon="05.711450"><ele>28</ele><time>2018-04-13T12:59:01Z</time><cmt>3.6 kmh</cmt></trkpt>
<trkpt lat="52.071220" lon="05.711405"><ele>27</ele><time>2018-04-13T12:59:04Z</time><cmt>4.1 kmh</cmt></trkpt>
<trkpt lat="52.071222" lon="05.711390"><ele>27</ele><time>2018-04-13T12:59:05Z</time><cmt>5.0 kmh</cmt></trkpt>
<trkpt lat="52.071222" lon="05.711376"><ele>27</ele><time>2018-04-13T12:59:06Z</time><cmt>3.2 kmh</cmt></trkpt>
<trkpt lat="52.071220" lon="05.711357"><ele>27</ele><time>2018-04-13T12:59:07Z</time><cmt>3.5 kmh</cmt></trkpt>
<trkpt lat="52.071220" lon="05.711344"><ele>26</ele><time>2018-04-13T12:59:08Z</time><cmt>4.3 kmh</cmt></trkpt>
<trkpt lat="52.071222" lon="05.711329"><ele>26</ele><time>2018-04-13T12:59:09Z</time><cmt>3.8 kmh</cmt></trkpt>
<trkpt lat="52.071224" lon="05.711312"><ele>26</ele><time>2018-04-13T12:59:10Z</time><cmt>4.2 kmh</cmt></trkpt>
<trkpt lat="52.071226" lon="05.711296"><ele>25</ele><time>2018-04-13T12:59:11Z</time><cmt>4.4 kmh</cmt></trkpt>
<trkpt lat="52.071231" lon="05.711280"><ele>25</ele><time>2018-04-13T12:59:12Z</time><cmt>3.6 kmh</cmt></trkpt>
<trkpt lat="52.071232" lon="05.711255"><ele>25</ele><time>2018-04-13T12:59:13Z</time><cmt>4.6 kmh</cmt></trkpt>
<trkpt lat="52.071231" lon="05.711236"><ele>25</ele><time>2018-04-13T12:59:14Z</time><cmt>5.0 kmh</cmt></trkpt>
<trkpt lat="52.071234" lon="05.711219"><ele>25</ele><time>2018-04-13T12:59:15Z</time><cmt>4.9 kmh</cmt></trkpt>
<trkpt lat="52.071235" lon="05.711210"><ele>25</ele><time>2018-04-13T12:59:16Z</time><cmt>3.6 kmh</cmt></trkpt>
<trkpt lat="52.071232" lon="05.711207"><ele>25</ele><time>2018-04-13T12:59:17Z</time><cmt>1.9 kmh</cmt></trkpt>
<trkpt lat="52.071233" lon="05.711204"><ele>25</ele><time>2018-04-13T12:59:18Z</time><cmt>0.8 kmh</cmt></trkpt>
<trkpt lat="52.071235" lon="05.711203"><ele>26</ele><time>2018-04-13T12:59:19Z</time><cmt>0.7 kmh</cmt></trkpt>
<trkpt lat="52.071241" lon="05.711199"><ele>26</ele><time>2018-04-13T12:59:20Z</time><cmt>1.8 kmh</cmt></trkpt>
<trkpt lat="52.071248" lon="05.711192"><ele>26</ele><time>2018-04-13T12:59:21Z</time><cmt>3.2 kmh</cmt></trkpt>
<trkpt lat="52.071256" lon="05.711186"><ele>27</ele><time>2018-04-13T12:59:22Z</time><cmt>3.8 kmh</cmt></trkpt>
<trkpt lat="52.071265" lon="05.711177"><ele>27</ele><time>2018-04-13T12:59:23Z</time><cmt>4.2 kmh</cmt></trkpt>
<trkpt lat="52.071269" lon="05.711167"><ele>27</ele><time>2018-04-13T12:59:24Z</time><cmt>3.8 kmh</cmt></trkpt>
<trkpt lat="52.071272" lon="05.711158"><ele>27</ele><time>2018-04-13T12:59:25Z</time><cmt>2.3 kmh</cmt></trkpt>
<trkpt lat="52.071275" lon="05.711149"><ele>28</ele><time>2018-04-13T12:59:26Z</time><cmt>2.2 kmh</cmt></trkpt>
<trkpt lat="52.071273" lon="05.711153"><ele>28</ele><time>2018-04-13T12:59:27Z</time><cmt>1.9 kmh</cmt></trkpt>
<trkpt lat="52.071272" lon="05.711157"><ele>28</ele><time>2018-04-13T12:59:28Z</time><cmt>1.2 kmh</cmt></trkpt>
<trkpt lat="52.071271" lon="05.711158"><ele>28</ele><time>2018-04-13T12:59:29Z</time><cmt>0.9 kmh</cmt></trkpt>
<trkpt lat="52.071266" lon="05.711162"><ele>28</ele><time>2018-04-13T12:59:30Z</time><cmt>1.4 kmh</cmt></trkpt>
<trkpt lat="52.071263" lon="05.711166"><ele>28</ele><time>2018-04-13T12:59:31Z</time><cmt>1.6 kmh</cmt></trkpt>
<trkpt lat="52.071261" lon="05.711170"><ele>28</ele><time>2018-04-13T12:59:32Z</time><cmt>1.2 kmh</cmt></trkpt>
<trkpt lat="52.071261" lon="05.711173"><ele>28</ele><time>2018-04-13T12:59:33Z</time><cmt>1.1 kmh</cmt></trkpt>
<trkpt lat="52.071259" lon="05.711176"><ele>28</ele><time>2018-04-13T12:59:34Z</time><cmt>1.0 kmh</cmt></trkpt>
<trkpt lat="52.071260" lon="05.711177"><ele>28</ele><time>2018-04-13T12:59:35Z</time><cmt>0.8 kmh</cmt></trkpt>
<trkpt lat="52.071261" lon="05.711172"><ele>28</ele><time>2018-04-13T12:59:36Z</time><cmt>1.0 kmh</cmt></trkpt>
<trkpt lat="52.071303" lon="05.711254"><ele>33</ele><time>2018-04-13T12:59:50Z</time><cmt>5.0 kmh</cmt></trkpt>
<trkpt lat="52.071299" lon="05.711072"><ele>23</ele><time>2018-04-13T13:00:58Z</time><cmt>5.0 kmh</cmt></trkpt>
<trkpt lat="52.071369" lon="05.711050"><ele>27</ele><time>2018-04-13T13:01:21Z</time><cmt>5.0 kmh</cmt></trkpt>
<trkpt lat="52.071389" lon="05.711023"><ele>27</ele><time>2018-04-13T13:01:24Z</time><cmt>3.7 kmh</cmt></trkpt>
<trkpt lat="52.071417" lon="05.711004"><ele>28</ele><time>2018-04-13T13:01:27Z</time><cmt>3.8 kmh</cmt></trkpt>
<trkpt lat="52.071439" lon="05.710998"><ele>28</ele><time>2018-04-13T13:01:29Z</time><cmt>5.0 kmh</cmt></trkpt>
<trkpt lat="52.071471" lon="05.710987"><ele>29</ele><time>2018-04-13T13:01:31Z</time><cmt>5.0 kmh</cmt></trkpt>
<trkpt lat="52.071493" lon="05.710973"><ele>29</ele><time>2018-04-13T13:01:32Z</time><cmt>5.0 kmh</cmt></trkpt>
<trkpt lat="52.071510" lon="05.710968"><ele>30</ele><time>2018-04-13T13:01:34Z</time><cmt>5.0 kmh</cmt></trkpt>
<trkpt lat="52.071529" lon="05.710946"><ele>30</ele><time>2018-04-13T13:01:37Z</time><cmt>3.3 kmh</cmt></trkpt>
<trkpt lat="52.071552" lon="05.710906"><ele>31</ele><time>2018-04-13T13:01:40Z</time><cmt>4.1 kmh</cmt></trkpt>
<trkpt lat="52.071569" lon="05.710876"><ele>31</ele><time>2018-04-13T13:01:42Z</time><cmt>5.0 kmh</cmt></trkpt>
<trkpt lat="52.071581" lon="05.710856"><ele>31</ele><time>2018-04-13T13:01:43Z</time><cmt>5.0 kmh</cmt></trkpt>
<trkpt lat="52.071590" lon="05.710806"><ele>31</ele><time>2018-04-13T13:01:46Z</time><cmt>3.9 kmh</cmt></trkpt>
<trkpt lat="52.071594" lon="05.710796"><ele>31</ele><time>2018-04-13T13:01:47Z</time><cmt>5.0 kmh</cmt></trkpt>
<trkpt lat="52.071599" lon="05.710780"><ele>31</ele><time>2018-04-13T13:01:48Z</time><cmt>3.9 kmh</cmt></trkpt>
<trkpt lat="52.071629" lon="05.710702"><ele>31</ele><time>2018-04-13T13:01:51Z</time><cmt>5.0 kmh</cmt></trkpt>
<trkpt lat="52.071637" lon="05.710648"><ele>30</ele><time>2018-04-13T13:01:54Z</time><cmt>4.9 kmh</cmt></trkpt>
<trkpt lat="52.071633" lon="05.710631"><ele>30</ele><time>2018-04-13T13:01:55Z</time><cmt>5.0 kmh</cmt></trkpt>
<trkpt lat="52.071630" lon="05.710609"><ele>30</ele><time>2018-04-13T13:01:56Z</time><cmt>5.0 kmh</cmt></trkpt>
<trkpt lat="52.071629" lon="05.710586"><ele>30</ele><time>2018-04-13T13:01:57Z</time><cmt>5.0 kmh</cmt></trkpt>
<trkpt lat="52.071630" lon="05.710568"><ele>29</ele><time>2018-04-13T13:01:58Z</time><cmt>4.4 kmh</cmt></trkpt>
<trkpt lat="52.071631" lon="05.710552"><ele>29</ele><time>2018-04-13T13:01:59Z</time><cmt>3.6 kmh</cmt></trkpt>
<trkpt lat="52.071634" lon="05.710534"><ele>29</ele><time>2018-04-13T13:02:00Z</time><cmt>4.6 kmh</cmt></trkpt>
<trkpt lat="52.071634" lon="05.710516"><ele>29</ele><time>2018-04-13T13:02:01Z</time><cmt>4.8 kmh</cmt></trkpt>
<trkpt lat="52.071643" lon="05.710491"><ele>29</ele><time>2018-04-13T13:02:02Z</time><cmt>5.0 kmh</cmt></trkpt>
<trkpt lat="52.071647" lon="05.710475"><ele>29</ele><time>2018-04-13T13:02:03Z</time><cmt>5.0 kmh</cmt></trkpt>
<trkpt lat="52.071644" lon="05.710463"><ele>28</ele><time>2018-04-13T13:02:04Z</time><cmt>3.2 kmh</cmt></trkpt>
<trkpt lat="52.071641" lon="05.710454"><ele>28</ele><time>2018-04-13T13:02:05Z</time><cmt>2.5 kmh</cmt></trkpt>
<trkpt lat="52.071638" lon="05.710442"><ele>28</ele><time>2018-04-13T13:02:06Z</time><cmt>2.9 kmh</cmt></trkpt>
<trkpt lat="52.071636" lon="05.710430"><ele>28</ele><time>2018-04-13T13:02:07Z</time><cmt>3.3 kmh</cmt></trkpt>
<trkpt lat="52.071632" lon="05.710417"><ele>28</ele><time>2018-04-13T13:02:08Z</time><cmt>3.7 kmh</cmt></trkpt>
<trkpt lat="52.071629" lon="05.710403"><ele>28</ele><time>2018-04-13T13:02:09Z</time><cmt>3.9 kmh</cmt></trkpt>
<trkpt lat="52.071624" lon="05.710394"><ele>28</ele><time>2018-04-13T13:02:10Z</time><cmt>2.8 kmh</cmt></trkpt>
<trkpt lat="52.071617" lon="05.710384"><ele>28</ele><time>2018-04-13T13:02:11Z</time><cmt>2.9 kmh</cmt></trkpt>
<trkpt lat="52.071609" lon="05.710372"><ele>28</ele><time>2018-04-13T13:02:12Z</time><cmt>4.3 kmh</cmt></trkpt>
<trkpt lat="52.071602" lon="05.710354"><ele>27</ele><time>2018-04-13T13:02:13Z</time><cmt>5.0 kmh</cmt></trkpt>
<trkpt lat="52.071591" lon="05.710342"><ele>27</ele><time>2018-04-13T13:02:14Z</time><cmt>5.0 kmh</cmt></trkpt>
<trkpt lat="52.071580" lon="05.710331"><ele>27</ele><time>2018-04-13T13:02:15Z</time><cmt>5.0 kmh</cmt></trkpt>
<trkpt lat="52.071566" lon="05.710321"><ele>27</ele><time>2018-04-13T13:02:16Z</time><cmt>5.0 kmh</cmt></trkpt>
<trkpt lat="52.071549" lon="05.710313"><ele>27</ele><time>2018-04-13T13:02:17Z</time><cmt>5.0 kmh</cmt></trkpt>
<trkpt lat="52.071538" lon="05.710297"><ele>26</ele><time>2018-04-13T13:02:18Z</time><cmt>5.0 kmh</cmt></trkpt>
<trkpt lat="52.071528" lon="05.710272"><ele>26</ele><time>2018-04-13T13:02:19Z</time><cmt>5.0 kmh</cmt></trkpt>
<trkpt lat="52.071517" lon="05.710252"><ele>26</ele><time>2018-04-13T13:02:20Z</time><cmt>5.9 kmh</cmt></trkpt>
<trkpt lat="52.071501" lon="05.710221"><ele>26</ele><time>2018-04-13T13:02:22Z</time><cmt>5.9 kmh</cmt></trkpt>
<trkpt lat="52.071450" lon="05.710105"><ele>24</ele><time>2018-04-13T13:02:33Z</time><cmt>5.0 kmh</cmt></trkpt>
<trkpt lat="52.071434" lon="05.710068"><ele>24</ele><time>2018-04-13T13:02:35Z</time><cmt>5.8 kmh</cmt></trkpt>
<trkpt lat="52.071413" lon="05.710042"><ele>24</ele><time>2018-04-13T13:02:37Z</time><cmt>4.6 kmh</cmt></trkpt>
<trkpt lat="52.071372" lon="05.709952"><ele>23</ele><time>2018-04-13T13:02:44Z</time><cmt>5.0 kmh</cmt></trkpt>
<trkpt lat="52.071282" lon="05.709806"><ele>19</ele><time>2018-04-13T13:03:00Z</time><cmt>5.0 kmh</cmt></trkpt>
<trkpt lat="52.071254" lon="05.709739"><ele>18</ele><time>2018-04-13T13:03:05Z</time><cmt>5.0 kmh</cmt></trkpt>
<trkpt lat="52.071207" lon="05.709660"><ele>17</ele><time>2018-04-13T13:03:11Z</time><cmt>5.0 kmh</cmt></trkpt>
<trkpt lat="52.071158" lon="05.709580"><ele>17</ele><time>2018-04-13T13:03:18Z</time><cmt>5.0 kmh</cmt></trkpt>
<trkpt lat="52.071062" lon="05.709432"><ele>17</ele><time>2018-04-13T13:03:28Z</time><cmt>5.0 kmh</cmt></trkpt>
<trkpt lat="52.071042" lon="05.709411"><ele>17</ele><time>2018-04-13T13:03:30Z</time><cmt>5.0 kmh</cmt></trkpt>
<trkpt lat="52.071023" lon="05.709381"><ele>17</ele><time>2018-04-13T13:03:32Z</time><cmt>5.0 kmh</cmt></trkpt>
<trkpt lat="52.071006" lon="05.709342"><ele>17</ele><time>2018-04-13T13:03:35Z</time><cmt>3.7 kmh</cmt></trkpt>
<trkpt lat="52.070974" lon="05.709295"><ele>17</ele><time>2018-04-13T13:03:38Z</time><cmt>5.0 kmh</cmt></trkpt>
<trkpt lat="52.070947" lon="05.709257"><ele>17</ele><time>2018-04-13T13:03:40Z</time><cmt>5.0 kmh</cmt></trkpt>
<trkpt lat="52.070940" lon="05.709241"><ele>17</ele><time>2018-04-13T13:03:41Z</time><cmt>5.0 kmh</cmt></trkpt>
<trkpt lat="52.070935" lon="05.709225"><ele>17</ele><time>2018-04-13T13:03:42Z</time><cmt>5.0 kmh</cmt></trkpt>
<trkpt lat="52.070919" lon="05.709193"><ele>16</ele><time>2018-04-13T13:03:44Z</time><cmt>5.0 kmh</cmt></trkpt>
<trkpt lat="52.070912" lon="05.709183"><ele>16</ele><time>2018-04-13T13:03:45Z</time><cmt>5.0 kmh</cmt></trkpt>
<trkpt lat="52.070905" lon="05.709174"><ele>16</ele><time>2018-04-13T13:03:46Z</time><cmt>3.2 kmh</cmt></trkpt>
<trkpt lat="52.070897" lon="05.709167"><ele>16</ele><time>2018-04-13T13:03:47Z</time><cmt>3.1 kmh</cmt></trkpt>
<trkpt lat="52.070890" lon="05.709154"><ele>16</ele><time>2018-04-13T13:03:48Z</time><cmt>4.3 kmh</cmt></trkpt>
<trkpt lat="52.070883" lon="05.709138"><ele>16</ele><time>2018-04-13T13:03:49Z</time><cmt>4.9 kmh</cmt></trkpt>
<trkpt lat="52.070875" lon="05.709124"><ele>16</ele><time>2018-04-13T13:03:50Z</time><cmt>5.0 kmh</cmt></trkpt>
<trkpt lat="52.070867" lon="05.709107"><ele>16</ele><time>2018-04-13T13:03:51Z</time><cmt>5.0 kmh</cmt></trkpt>
<trkpt lat="52.070859" lon="05.709096"><ele>16</ele><time>2018-04-13T13:03:52Z</time><cmt>4.0 kmh</cmt></trkpt>
<trkpt lat="52.070852" lon="05.709082"><ele>16</ele><time>2018-04-13T13:03:53Z</time><cmt>3.7 kmh</cmt></trkpt>
<trkpt lat="52.070846" lon="05.709072"><ele>16</ele><time>2018-04-13T13:03:54Z</time><cmt>4.3 kmh</cmt></trkpt>
<trkpt lat="52.070842" lon="05.709063"><ele>16</ele><time>2018-04-13T13:03:55Z</time><cmt>3.4 kmh</cmt></trkpt>
<trkpt lat="52.070833" lon="05.709051"><ele>16</ele><time>2018-04-13T13:03:56Z</time><cmt>4.0 kmh</cmt></trkpt>
<trkpt lat="52.070826" lon="05.709043"><ele>16</ele><time>2018-04-13T13:03:57Z</time><cmt>4.2 kmh</cmt></trkpt>
<trkpt lat="52.070815" lon="05.709035"><ele>17</ele><time>2018-04-13T13:03:59Z</time><cmt>2.3 kmh</cmt></trkpt>
<trkpt lat="52.070809" lon="05.709029"><ele>17</ele><time>2018-04-13T13:04:00Z</time><cmt>3.5 kmh</cmt></trkpt>
<trkpt lat="52.070800" lon="05.709014"><ele>17</ele><time>2018-04-13T13:04:01Z</time><cmt>4.2 kmh</cmt></trkpt>
<trkpt lat="52.070780" lon="05.708985"><ele>17</ele><time>2018-04-13T13:04:03Z</time><cmt>5.0 kmh</cmt></trkpt>
<trkpt lat="52.070774" lon="05.708975"><ele>17</ele><time>2018-04-13T13:04:04Z</time><cmt>5.0 kmh</cmt></trkpt>
<trkpt lat="52.070770" lon="05.708960"><ele>17</ele><time>2018-04-13T13:04:05Z</time><cmt>3.3 kmh</cmt></trkpt>
<trkpt lat="52.070771" lon="05.708946"><ele>17</ele><time>2018-04-13T13:04:06Z</time><cmt>3.3 kmh</cmt></trkpt>
<trkpt lat="52.070769" lon="05.708935"><ele>17</ele><time>2018-04-13T13:04:07Z</time><cmt>3.4 kmh</cmt></trkpt>
<trkpt lat="52.070766" lon="05.708923"><ele>17</ele><time>2018-04-13T13:04:08Z</time><cmt>3.2 kmh</cmt></trkpt>
<trkpt lat="52.070765" lon="05.708910"><ele>17</ele><time>2018-04-13T13:04:09Z</time><cmt>3.4 kmh</cmt></trkpt>
<trkpt lat="52.070767" lon="05.708899"><ele>17</ele><time>2018-04-13T13:04:10Z</time><cmt>3.2 kmh</cmt></trkpt>
<trkpt lat="52.070771" lon="05.708879"><ele>17</ele><time>2018-04-13T13:04:11Z</time><cmt>3.4 kmh</cmt></trkpt>
<trkpt lat="52.070778" lon="05.708866"><ele>18</ele><time>2018-04-13T13:04:12Z</time><cmt>4.1 kmh</cmt></trkpt>
<trkpt lat="52.070786" lon="05.708855"><ele>18</ele><time>2018-04-13T13:04:13Z</time><cmt>4.7 kmh</cmt></trkpt>
<trkpt lat="52.070793" lon="05.708840"><ele>18</ele><time>2018-04-13T13:04:14Z</time><cmt>4.8 kmh</cmt></trkpt>
<trkpt lat="52.070801" lon="05.708825"><ele>18</ele><time>2018-04-13T13:04:15Z</time><cmt>5.0 kmh</cmt></trkpt>
<trkpt lat="52.070808" lon="05.708809"><ele>18</ele><time>2018-04-13T13:04:16Z</time><cmt>5.0 kmh</cmt></trkpt>
<trkpt lat="52.070816" lon="05.708791"><ele>19</ele><time>2018-04-13T13:04:17Z</time><cmt>5.0 kmh</cmt></trkpt>
<trkpt lat="52.070822" lon="05.708775"><ele>19</ele><time>2018-04-13T13:04:18Z</time><cmt>4.3 kmh</cmt></trkpt>
<trkpt lat="52.070827" lon="05.708758"><ele>19</ele><time>2018-04-13T13:04:19Z</time><cmt>4.0 kmh</cmt></trkpt>
<trkpt lat="52.070834" lon="05.708741"><ele>19</ele><time>2018-04-13T13:04:20Z</time><cmt>5.0 kmh</cmt></trkpt>
<trkpt lat="52.070838" lon="05.708726"><ele>19</ele><time>2018-04-13T13:04:21Z</time><cmt>4.9 kmh</cmt></trkpt>
<trkpt lat="52.070846" lon="05.708713"><ele>19</ele><time>2018-04-13T13:04:22Z</time><cmt>4.7 kmh</cmt></trkpt>
<trkpt lat="52.070852" lon="05.708705"><ele>20</ele><time>2018-04-13T13:04:23Z</time><cmt>4.1 kmh</cmt></trkpt>
<trkpt lat="52.070854" lon="05.708697"><ele>20</ele><time>2018-04-13T13:04:24Z</time><cmt>2.3 kmh</cmt></trkpt>
<trkpt lat="52.070853" lon="05.708687"><ele>20</ele><time>2018-04-13T13:04:25Z</time><cmt>2.1 kmh</cmt></trkpt>
<trkpt lat="52.070860" lon="05.708674"><ele>20</ele><time>2018-04-13T13:04:26Z</time><cmt>3.6 kmh</cmt></trkpt>
<trkpt lat="52.070927" lon="05.708545"><ele>20</ele><time>2018-04-13T13:04:53Z</time><cmt>5.0 kmh</cmt></trkpt>
<trkpt lat="52.070943" lon="05.708447"><ele>20</ele><time>2018-04-13T13:05:01Z</time><cmt>5.0 kmh</cmt></trkpt>
<trkpt lat="52.070964" lon="05.708391"><ele>19</ele><time>2018-04-13T13:05:05Z</time><cmt>5.0 kmh</cmt></trkpt>
<trkpt lat="52.070992" lon="05.708284"><ele>18</ele><time>2018-04-13T13:05:12Z</time><cmt>5.0 kmh</cmt></trkpt>
<trkpt lat="52.071021" lon="05.708224"><ele>18</ele><time>2018-04-13T13:05:16Z</time><cmt>5.0 kmh</cmt></trkpt>
<trkpt lat="52.071044" lon="05.708183"><ele>18</ele><time>2018-04-13T13:05:19Z</time><cmt>4.9 kmh</cmt></trkpt>
<trkpt lat="52.071079" lon="05.708139"><ele>18</ele><time>2018-04-13T13:05:22Z</time><cmt>5.0 kmh</cmt></trkpt>
<trkpt lat="52.071120" lon="05.708087"><ele>18</ele><time>2018-04-13T13:05:26Z</time><cmt>5.0 kmh</cmt></trkpt>
<trkpt lat="52.071147" lon="05.708054"><ele>18</ele><time>2018-04-13T13:05:29Z</time><cmt>4.1 kmh</cmt></trkpt>
<trkpt lat="52.071175" lon="05.708017"><ele>18</ele><time>2018-04-13T13:05:33Z</time><cmt>4.0 kmh</cmt></trkpt>
<trkpt lat="52.071280" lon="05.707868"><ele>20</ele><time>2018-04-13T13:05:44Z</time><cmt>5.0 kmh</cmt></trkpt>
<trkpt lat="52.071306" lon="05.707802"><ele>21</ele><time>2018-04-13T13:05:50Z</time><cmt>5.0 kmh</cmt></trkpt>
<trkpt lat="52.071332" lon="05.707738"><ele>21</ele><time>2018-04-13T13:05:54Z</time><cmt>5.0 kmh</cmt></trkpt>
<trkpt lat="52.071357" lon="05.707703"><ele>21</ele><time>2018-04-13T13:05:56Z</time><cmt>5.0 kmh</cmt></trkpt>
<trkpt lat="52.071387" lon="05.707672"><ele>20</ele><time>2018-04-13T13:05:58Z</time><cmt>5.0 kmh</cmt></trkpt>
<trkpt lat="52.071409" lon="05.707631"><ele>20</ele><time>2018-04-13T13:06:00Z</time><cmt>5.0 kmh</cmt></trkpt>
<trkpt lat="52.071435" lon="05.707576"><ele>20</ele><time>2018-04-13T13:06:03Z</time><cmt>5.0 kmh</cmt></trkpt>
<trkpt lat="52.071478" lon="05.707495"><ele>19</ele><time>2018-04-13T13:06:09Z</time><cmt>5.0 kmh</cmt></trkpt>
<trkpt lat="52.071509" lon="05.707403"><ele>19</ele><time>2018-04-13T13:06:15Z</time><cmt>5.0 kmh</cmt></trkpt>
<trkpt lat="52.071539" lon="05.707364"><ele>19</ele><time>2018-04-13T13:06:17Z</time><cmt>5.0 kmh</cmt></trkpt>
<trkpt lat="52.071565" lon="05.707320"><ele>19</ele><time>2018-04-13T13:06:20Z</time><cmt>4.6 kmh</cmt></trkpt>
<trkpt lat="52.071595" lon="05.707284"><ele>18</ele><time>2018-04-13T13:06:23Z</time><cmt>5.0 kmh</cmt></trkpt>
<trkpt lat="52.071624" lon="05.707238"><ele>18</ele><time>2018-04-13T13:06:26Z</time><cmt>5.0 kmh</cmt></trkpt>
<trkpt lat="52.071656" lon="05.707196"><ele>18</ele><time>2018-04-13T13:06:29Z</time><cmt>5.0 kmh</cmt></trkpt>
<trkpt lat="52.071689" lon="05.707153"><ele>18</ele><time>2018-04-13T13:06:32Z</time><cmt>5.0 kmh</cmt></trkpt>
<trkpt lat="52.071719" lon="05.707089"><ele>18</ele><time>2018-04-13T13:06:36Z</time><cmt>5.0 kmh</cmt></trkpt>
<trkpt lat="52.071764" lon="05.707005"><ele>18</ele><time>2018-04-13T13:06:48Z</time><cmt>5.0 kmh</cmt></trkpt>
<trkpt lat="52.071790" lon="05.706944"><ele>17</ele><time>2018-04-13T13:06:53Z</time><cmt>5.0 kmh</cmt></trkpt>
<trkpt lat="52.071993" lon="05.706738"><ele>22</ele><time>2018-04-13T13:07:17Z</time><cmt>5.0 kmh</cmt></trkpt>
<trkpt lat="52.071997" lon="05.706736"><ele>22</ele><time>2018-04-13T13:07:18Z</time><cmt>5.0 kmh</cmt></trkpt>
<trkpt lat="52.072001" lon="05.706730"><ele>22</ele><time>2018-04-13T13:07:19Z</time><cmt>2.1 kmh</cmt></trkpt>
<trkpt lat="52.072012" lon="05.706722"><ele>23</ele><time>2018-04-13T13:07:20Z</time><cmt>3.7 kmh</cmt></trkpt>
<trkpt lat="52.072017" lon="05.706712"><ele>23</ele><time>2018-04-13T13:07:21Z</time><cmt>4.2 kmh</cmt></trkpt>
<trkpt lat="52.072019" lon="05.706705"><ele>23</ele><time>2018-04-13T13:07:22Z</time><cmt>2.3 kmh</cmt></trkpt>
<trkpt lat="52.072065" lon="05.706563"><ele>23</ele><time>2018-04-13T13:07:37Z</time><cmt>5.0 kmh</cmt></trkpt>
<trkpt lat="52.072096" lon="05.706511"><ele>23</ele><time>2018-04-13T13:07:40Z</time><cmt>5.0 kmh</cmt></trkpt>
<trkpt lat="52.072128" lon="05.706476"><ele>22</ele><time>2018-04-13T13:07:43Z</time><cmt>4.7 kmh</cmt></trkpt>
<trkpt lat="52.072164" lon="05.706412"><ele>22</ele><time>2018-04-13T13:07:47Z</time><cmt>5.0 kmh</cmt></trkpt>
<trkpt lat="52.072191" lon="05.706363"><ele>21</ele><time>2018-04-13T13:07:50Z</time><cmt>5.0 kmh</cmt></trkpt>
<trkpt lat="52.072219" lon="05.706314"><ele>21</ele><time>2018-04-13T13:07:54Z</time><cmt>3.9 kmh</cmt></trkpt>
<trkpt lat="52.072244" lon="05.706262"><ele>21</ele><time>2018-04-13T13:07:58Z</time><cmt>4.4 kmh</cmt></trkpt>
<trkpt lat="52.072272" lon="05.706207"><ele>20</ele><time>2018-04-13T13:08:02Z</time><cmt>5.0 kmh</cmt></trkpt>
<trkpt lat="52.072301" lon="05.706168"><ele>20</ele><time>2018-04-13T13:08:05Z</time><cmt>5.0 kmh</cmt></trkpt>
<trkpt lat="52.072327" lon="05.706121"><ele>19</ele><time>2018-04-13T13:08:09Z</time><cmt>3.8 kmh</cmt></trkpt>
<trkpt lat="52.072347" lon="05.706046"><ele>18</ele><time>2018-04-13T13:08:16Z</time><cmt>5.0 kmh</cmt></trkpt>
<trkpt lat="52.072371" lon="05.705981"><ele>17</ele><time>2018-04-13T13:08:20Z</time><cmt>4.5 kmh</cmt></trkpt>
<trkpt lat="52.072399" lon="05.705917"><ele>17</ele><time>2018-04-13T13:08:24Z</time><cmt>5.0 kmh</cmt></trkpt>
<trkpt lat="52.072426" lon="05.705843"><ele>14</ele><time>2018-04-13T13:08:32Z</time><cmt>5.0 kmh</cmt></trkpt>
<trkpt lat="52.072459" lon="05.705782"><ele>13</ele><time>2018-04-13T13:08:37Z</time><cmt>5.0 kmh</cmt></trkpt>
<trkpt lat="52.072486" lon="05.705732"><ele>13</ele><time>2018-04-13T13:08:40Z</time><cmt>5.0 kmh</cmt></trkpt>
<trkpt lat="52.072512" lon="05.705683"><ele>12</ele><time>2018-04-13T13:08:43Z</time><cmt>5.0 kmh</cmt></trkpt>
<trkpt lat="52.072540" lon="05.705634"><ele>12</ele><time>2018-04-13T13:08:46Z</time><cmt>5.0 kmh</cmt></trkpt>
<trkpt lat="52.072576" lon="05.705580"><ele>11</ele><time>2018-04-13T13:08:50Z</time><cmt>5.0 kmh</cmt></trkpt>
<trkpt lat="52.072639" lon="05.705475"><ele>9</ele><time>2018-04-13T13:08:57Z</time><cmt>5.0 kmh</cmt></trkpt>
<trkpt lat="52.072680" lon="05.705374"><ele>7</ele><time>2018-04-13T13:09:05Z</time><cmt>5.0 kmh</cmt></trkpt>
<trkpt lat="52.072723" lon="05.705303"><ele>7</ele><time>2018-04-13T13:09:10Z</time><cmt>5.0 kmh</cmt></trkpt>
<trkpt lat="52.072768" lon="05.705226"><ele>6</ele><time>2018-04-13T13:09:15Z</time><cmt>5.0 kmh</cmt></trkpt>
<trkpt lat="52.072807" lon="05.705184"><ele>7</ele><time>2018-04-13T13:09:18Z</time><cmt>5.0 kmh</cmt></trkpt>
<trkpt lat="52.072850" lon="05.705109"><ele>7</ele><time>2018-04-13T13:09:24Z</time><cmt>5.0 kmh</cmt></trkpt>
<trkpt lat="52.072880" lon="05.705065"><ele>7</ele><time>2018-04-13T13:09:27Z</time><cmt>5.0 kmh</cmt></trkpt>
<trkpt lat="52.072911" lon="05.705024"><ele>7</ele><time>2018-04-13T13:09:30Z</time><cmt>5.0 kmh</cmt></trkpt>
<trkpt lat="52.072943" lon="05.704983"><ele>8</ele><time>2018-04-13T13:09:33Z</time><cmt>5.0 kmh</cmt></trkpt>
<trkpt lat="52.073005" lon="05.704901"><ele>9</ele><time>2018-04-13T13:09:40Z</time><cmt>5.0 kmh</cmt></trkpt>
<trkpt lat="52.073031" lon="05.704865"><ele>9</ele><time>2018-04-13T13:09:43Z</time><cmt>4.3 kmh</cmt></trkpt>
<trkpt lat="52.073118" lon="05.704802"><ele>12</ele><time>2018-04-13T13:09:49Z</time><cmt>5.0 kmh</cmt></trkpt>
<trkpt lat="52.073143" lon="05.704794"><ele>12</ele><time>2018-04-13T13:09:50Z</time><cmt>5.0 kmh</cmt></trkpt>
<trkpt lat="52.073215" lon="05.704745"><ele>16</ele><time>2018-04-13T13:09:57Z</time><cmt>5.0 kmh</cmt></trkpt>
<trkpt lat="52.073249" lon="05.704699"><ele>18</ele><time>2018-04-13T13:10:01Z</time><cmt>4.3 kmh</cmt></trkpt>
<trkpt lat="52.073279" lon="05.704662"><ele>19</ele><time>2018-04-13T13:10:03Z</time><cmt>5.0 kmh</cmt></trkpt>
<trkpt lat="52.073306" lon="05.704632"><ele>20</ele><time>2018-04-13T13:10:04Z</time><cmt>5.0 kmh</cmt></trkpt>
<trkpt lat="52.073316" lon="05.704620"><ele>20</ele><time>2018-04-13T13:10:05Z</time><cmt>5.0 kmh</cmt></trkpt>
<trkpt lat="52.073327" lon="05.704609"><ele>21</ele><time>2018-04-13T13:10:06Z</time><cmt>5.0 kmh</cmt></trkpt>
<trkpt lat="52.073337" lon="05.704601"><ele>21</ele><time>2018-04-13T13:10:07Z</time><cmt>5.0 kmh</cmt></trkpt>
<trkpt lat="52.073345" lon="05.704593"><ele>22</ele><time>2018-04-13T13:10:08Z</time><cmt>3.6 kmh</cmt></trkpt>
<trkpt lat="52.073352" lon="05.704587"><ele>22</ele><time>2018-04-13T13:10:09Z</time><cmt>2.9 kmh</cmt></trkpt>
<trkpt lat="52.073358" lon="05.704580"><ele>23</ele><time>2018-04-13T13:10:10Z</time><cmt>3.1 kmh</cmt></trkpt>
<trkpt lat="52.073364" lon="05.704572"><ele>23</ele><time>2018-04-13T13:10:11Z</time><cmt>3.3 kmh</cmt></trkpt>
<trkpt lat="52.073370" lon="05.704566"><ele>23</ele><time>2018-04-13T13:10:12Z</time><cmt>3.2 kmh</cmt></trkpt>
<trkpt lat="52.073375" lon="05.704560"><ele>24</ele><time>2018-04-13T13:10:13Z</time><cmt>2.8 kmh</cmt></trkpt>
<trkpt lat="52.073381" lon="05.704557"><ele>24</ele><time>2018-04-13T13:10:14Z</time><cmt>2.2 kmh</cmt></trkpt>
<trkpt lat="52.073386" lon="05.704553"><ele>24</ele><time>2018-04-13T13:10:15Z</time><cmt>2.1 kmh</cmt></trkpt>
<trkpt lat="52.073392" lon="05.704551"><ele>25</ele><time>2018-04-13T13:10:16Z</time><cmt>2.5 kmh</cmt></trkpt>
<trkpt lat="52.073397" lon="05.704549"><ele>25</ele><time>2018-04-13T13:10:17Z</time><cmt>2.4 kmh</cmt></trkpt>
<trkpt lat="52.073407" lon="05.704544"><ele>25</ele><time>2018-04-13T13:10:18Z</time><cmt>3.5 kmh</cmt></trkpt>
<trkpt lat="52.073417" lon="05.704539"><ele>25</ele><time>2018-04-13T13:10:19Z</time><cmt>4.6 kmh</cmt></trkpt>
<trkpt lat="52.073424" lon="05.704536"><ele>26</ele><time>2018-04-13T13:10:20Z</time><cmt>3.0 kmh</cmt></trkpt>
<trkpt lat="52.073427" lon="05.704534"><ele>26</ele><time>2018-04-13T13:10:21Z</time><cmt>1.8 kmh</cmt></trkpt>
<trkpt lat="52.073435" lon="05.704530"><ele>26</ele><time>2018-04-13T13:10:22Z</time><cmt>2.6 kmh</cmt></trkpt>
<trkpt lat="52.073446" lon="05.704523"><ele>26</ele><time>2018-04-13T13:10:23Z</time><cmt>4.3 kmh</cmt></trkpt>
<trkpt lat="52.073452" lon="05.704524"><ele>26</ele><time>2018-04-13T13:10:24Z</time><cmt>3.6 kmh</cmt></trkpt>
<trkpt lat="52.073458" lon="05.704524"><ele>27</ele><time>2018-04-13T13:10:25Z</time><cmt>2.6 kmh</cmt></trkpt>
<trkpt lat="52.073462" lon="05.704521"><ele>27</ele><time>2018-04-13T13:10:26Z</time><cmt>2.4 kmh</cmt></trkpt>
<trkpt lat="52.073464" lon="05.704514"><ele>27</ele><time>2018-04-13T13:10:27Z</time><cmt>1.6 kmh</cmt></trkpt>
<trkpt lat="52.073467" lon="05.704511"><ele>27</ele><time>2018-04-13T13:10:28Z</time><cmt>1.4 kmh</cmt></trkpt>
<trkpt lat="52.073469" lon="05.704510"><ele>27</ele><time>2018-04-13T13:10:29Z</time><cmt>1.1 kmh</cmt></trkpt>
<trkpt lat="52.073470" lon="05.704509"><ele>28</ele><time>2018-04-13T13:10:30Z</time><cmt>0.4 kmh</cmt></trkpt>
<trkpt lat="52.073471" lon="05.704508"><ele>28</ele><time>2018-04-13T13:10:31Z</time><cmt>0.0 kmh</cmt></trkpt>
<trkpt lat="52.073472" lon="05.704505"><ele>28</ele><time>2018-04-13T13:10:32Z</time><cmt>0.5 kmh</cmt></trkpt>
<trkpt lat="52.073472" lon="05.704502"><ele>28</ele><time>2018-04-13T13:10:33Z</time><cmt>0.6 kmh</cmt></trkpt>
<trkpt lat="52.073473" lon="05.704501"><ele>28</ele><time>2018-04-13T13:10:34Z</time><cmt>0.3 kmh</cmt></trkpt>
<trkpt lat="52.073475" lon="05.704499"><ele>29</ele><time>2018-04-13T13:10:35Z</time><cmt>0.5 kmh</cmt></trkpt>
<trkpt lat="52.073477" lon="05.704497"><ele>29</ele><time>2018-04-13T13:10:36Z</time><cmt>1.0 kmh</cmt></trkpt>
<trkpt lat="52.073479" lon="05.704496"><ele>29</ele><time>2018-04-13T13:10:37Z</time><cmt>1.0 kmh</cmt></trkpt>
<trkpt lat="52.073480" lon="05.704494"><ele>29</ele><time>2018-04-13T13:10:38Z</time><cmt>0.7 kmh</cmt></trkpt>
<trkpt lat="52.073481" lon="05.704492"><ele>29</ele><time>2018-04-13T13:10:39Z</time><cmt>0.6 kmh</cmt></trkpt>
<trkpt lat="52.073482" lon="05.704489"><ele>30</ele><time>2018-04-13T13:10:40Z</time><cmt>0.6 kmh</cmt></trkpt>
<trkpt lat="52.073482" lon="05.704486"><ele>30</ele><time>2018-04-13T13:10:41Z</time><cmt>0.7 kmh</cmt></trkpt>
<trkpt lat="52.073482" lon="05.704482"><ele>30</ele><time>2018-04-13T13:10:42Z</time><cmt>1.0 kmh</cmt></trkpt>
<trkpt lat="52.073483" lon="05.704477"><ele>30</ele><time>2018-04-13T13:10:43Z</time><cmt>1.2 kmh</cmt></trkpt></trkseg></trk></gpx>